Observation data for Fort Chadbourne on 05/26/2019      Previous  Date  Next       Current Mesonet Observations  Soil Data  Daily Summary Page  Observations in Plain Language
KCH1 260500Z 16010G15KT 25/19 A2996 RMK A01 T02450194  RH  073%=      5-min Rain = 0
KCH1 260501Z 16014KT 24/19 A2996 RMK A01 T02440193  RH  073%=      5-min Rain = 0
KCH1 260502Z 16012KT 24/19 A2996 RMK A01 T02440193  RH  073%=      5-min Rain = 0
KCH1 260503Z 16013G18KT 24/19 A2996 RMK A01 T02440193  RH  073%=      5-min Rain = 0
KCH1 260504Z 17013KT 24/19 A2996 RMK A01 T02440193  RH  073%=      5-min Rain = 0
KCH1 260505Z 16012KT 24/19 A2996 RMK A01 T02440193  RH  073%=      5-min Rain = 0
KCH1 260506Z 16010KT 24/19 A2996 RMK A01 T02440193  RH  073%=      5-min Rain = 0
KCH1 260507Z 16010G15KT 24/19 A2996 RMK A01 T02440194  RH  073%=      5-min Rain = 0
KCH1 260508Z 16011KT 24/19 A2996 RMK A01 T02440193  RH  073%=      5-min Rain = 0
KCH1 260509Z 16012KT 24/19 A2996 RMK A01 T02430193  RH  074%=      5-min Rain = 0
KCH1 260510Z 16009KT 24/19 A2996 RMK A01 T02430194  RH  074%=      5-min Rain = 0
KCH1 260511Z 16011KT 24/19 A2996 RMK A01 T02430194  RH  074%=      5-min Rain = 0
KCH1 260512Z 16011KT 24/19 A2996 RMK A01 T02420193  RH  074%=      5-min Rain = 0
KCH1 260513Z 16013KT 24/19 A2996 RMK A01 T02420193  RH  074%=      5-min Rain = 0
KCH1 260514Z 15010G17KT 24/19 A2996 RMK A01 T02420193  RH  074%=      5-min Rain = 0
KCH1 260515Z 16011KT 24/19 A2996 RMK A01 T02420193  RH  074%=      5-min Rain = 0
KCH1 260516Z 17011KT 24/19 A2996 RMK A01 T02420193  RH  074%=      5-min Rain = 0
KCH1 260517Z 16012KT 24/19 A2996 RMK A01 T02420193  RH  074%=      5-min Rain = 0
KCH1 260518Z 15010KT 24/19 A2996 RMK A01 T02410193  RH  074%=      5-min Rain = 0
KCH1 260519Z 17012KT 24/19 A2996 RMK A01 T02410193  RH  074%=      5-min Rain = 0
KCH1 260520Z 17013KT 24/19 A2996 RMK A01 T02410194  RH  075%=      5-min Rain = 0
KCH1 260521Z 16011KT 24/19 A2996 RMK A01 T02410193  RH  075%=      5-min Rain = 0
KCH1 260522Z 16013KT 24/19 A2996 RMK A01 T02410193  RH  075%=      5-min Rain = 0
KCH1 260523Z 16011KT 24/19 A2996 RMK A01 T02410193  RH  075%=      5-min Rain = 0
KCH1 260524Z 16013G18KT 24/19 A2996 RMK A01 T02410193  RH  075%=      5-min Rain = 0
KCH1 260525Z 16011KT 24/19 A2996 RMK A01 T02410193  RH  075%=      5-min Rain = 0
KCH1 260526Z 16014KT 24/19 A2996 RMK A01 T02410194  RH  075%=      5-min Rain = 0
KCH1 260527Z 16013KT 24/19 A2996 RMK A01 T02400193  RH  075%=      5-min Rain = 0
KCH1 260528Z 16014KT 24/19 A2996 RMK A01 T02410193  RH  075%=      5-min Rain = 0
KCH1 260529Z 16012KT 24/19 A2996 RMK A01 T02410193  RH  075%=      5-min Rain = 0
KCH1 260530Z 16011G17KT 24/19 A2996 RMK A01 T02400194  RH  075%=      5-min Rain = 0
KCH1 260531Z 16013G19KT 24/19 A2996 RMK A01 T02400194  RH  075%=      5-min Rain = 0
KCH1 260532Z 17013G19KT 24/19 A2996 RMK A01 T02400194  RH  075%=      5-min Rain = 0
KCH1 260533Z 17013G18KT 24/19 A2996 RMK A01 T02400194  RH  075%=      5-min Rain = 0
KCH1 260534Z 16015KT 24/19 A2996 RMK A01 T02400194  RH  075%=      5-min Rain = 0
KCH1 260535Z 16010KT 24/19 A2996 RMK A01 T02400194  RH  075%=      5-min Rain = 0
KCH1 260536Z 16012KT 24/19 A2996 RMK A01 T02400194  RH  075%=      5-min Rain = 0
KCH1 260537Z 16015G22KT 24/19 A2996 RMK A01 T02400194  RH  075%=      5-min Rain = 0
KCH1 260538Z 17010G15KT 24/19 A2996 RMK A01 T02400194  RH  075%=      5-min Rain = 0
KCH1 260539Z 16014KT 24/19 A2996 RMK A01 T02400194  RH  075%=      5-min Rain = 0
KCH1 260540Z 16014G21KT 24/19 A2996 RMK A01 T02400194  RH  075%=      5-min Rain = 0
KCH1 260541Z 16015KT 24/19 A2996 RMK A01 T02400193  RH  075%=      5-min Rain = 0
KCH1 260542Z 16011KT 24/19 A2996 RMK A01 T02410193  RH  075%=      5-min Rain = 0
KCH1 260543Z 17012G19KT 24/19 A2996 RMK A01 T02410194  RH  075%=      5-min Rain = 0
KCH1 260544Z 16014KT 24/19 A2996 RMK A01 T02400193  RH  075%=      5-min Rain = 0
KCH1 260545Z 16010G18KT 24/19 A2996 RMK A01 T02400193  RH  075%=      5-min Rain = 0
KCH1 260546Z 16014KT 24/19 A2996 RMK A01 T02400193  RH  075%=      5-min Rain = 0
KCH1 260547Z 16012G17KT 24/19 A2996 RMK A01 T02400193  RH  075%=      5-min Rain = 0
KCH1 260548Z 16012KT 24/19 A2996 RMK A01 T02400194  RH  075%=      5-min Rain = 0
KCH1 260549Z 16011G16KT 24/19 A2996 RMK A01 T02390194  RH  076%=      5-min Rain = 0
KCH1 260550Z 16012G17KT 24/19 A2996 RMK A01 T02390194  RH  076%=      5-min Rain = 0
KCH1 260551Z 17015KT 24/19 A2996 RMK A01 T02380194  RH  076%=      5-min Rain = 0
KCH1 260552Z 16012KT 24/19 A2996 RMK A01 T02380193  RH  076%=      5-min Rain = 0
KCH1 260553Z 16010KT 24/19 A2996 RMK A01 T02380194  RH  076%=      5-min Rain = 0
KCH1 260554Z 16010KT 24/19 A2996 RMK A01 T02380194  RH  076%=      5-min Rain = 0
KCH1 260555Z 16014KT 24/19 A2996 RMK A01 T02380194  RH  076%=      5-min Rain = 0
KCH1 260556Z 16013KT 24/19 A2996 RMK A01 T02380194  RH  076%=      5-min Rain = 0
KCH1 260557Z 16013G19KT 24/19 A2996 RMK A01 T02370194  RH  077%=      5-min Rain = 0
KCH1 260558Z 17014G19KT 24/19 A2996 RMK A01 T02370194  RH  076%=      5-min Rain = 0
KCH1 260559Z 16013G18KT 24/19 A2996 RMK A01 T02380194  RH  076%=      5-min Rain = 0
KCH1 260600Z 16013KT 24/19 A2996 RMK A01 T02370194  RH  077%=      5-min Rain = 0
KCH1 260601Z 16011G16KT 24/19 A2996 RMK A01 T02370194  RH  077%=      5-min Rain = 0
KCH1 260602Z 16012KT 24/19 A2996 RMK A01 T02370194  RH  077%=      5-min Rain = 0
KCH1 260603Z 16010G16KT 24/19 A2996 RMK A01 T02370194  RH  077%=      5-min Rain = 0
KCH1 260604Z 16011KT 24/19 A2996 RMK A01 T02360194  RH  077%=      5-min Rain = 0
KCH1 260605Z 16013KT 24/19 A2996 RMK A01 T02360194  RH  077%=      5-min Rain = 0
KCH1 260606Z 16010KT 24/19 A2996 RMK A01 T02360194  RH  077%=      5-min Rain = 0
KCH1 260607Z 16010KT 24/19 A2996 RMK A01 T02350194  RH  077%=      5-min Rain = 0
KCH1 260608Z 16009KT 24/19 A2996 RMK A01 T02350194  RH  078%=      5-min Rain = 0
KCH1 260609Z 16013KT 24/19 A2996 RMK A01 T02350194  RH  078%=      5-min Rain = 0
KCH1 260610Z 16012KT 24/19 A2996 RMK A01 T02350194  RH  078%=      5-min Rain = 0
KCH1 260611Z 16009G14KT 24/19 A2996 RMK A01 T02350194  RH  078%=      5-min Rain = 0
KCH1 260612Z 16011G19KT 23/19 A2996 RMK A01 T02340194  RH  078%=      5-min Rain = 0
KCH1 260613Z 15014G20KT 23/19 A2996 RMK A01 T02340194  RH  078%=      5-min Rain = 0
KCH1 260614Z 16009KT 23/19 A2996 RMK A01 T02340193  RH  078%=      5-min Rain = 0
KCH1 260615Z 16007KT 23/19 A2996 RMK A01 T02340194  RH  078%=      5-min Rain = 0
KCH1 260616Z 15010KT 23/19 A2996 RMK A01 T02330194  RH  079%=      5-min Rain = 0
KCH1 260617Z 16009KT 23/19 A2996 RMK A01 T02320194  RH  079%=      5-min Rain = 0
KCH1 260618Z 16012KT 23/19 A2996 RMK A01 T02320194  RH  079%=      5-min Rain = 0
KCH1 260619Z 16011KT 23/19 A2996 RMK A01 T02330194  RH  079%=      5-min Rain = 0
KCH1 260620Z 16011G16KT 23/19 A2996 RMK A01 T02320194  RH  079%=      5-min Rain = 0
KCH1 260621Z 16010G15KT 23/19 A2996 RMK A01 T02320194  RH  079%=      5-min Rain = 0
KCH1 260622Z 17012KT 23/19 A2996 RMK A01 T02330194  RH  079%=      5-min Rain = 0
KCH1 260623Z 16010KT 23/19 A2996 RMK A01 T02320194  RH  079%=      5-min Rain = 0
KCH1 260624Z 16008KT 23/19 A2996 RMK A01 T02320194  RH  079%=      5-min Rain = 0
KCH1 260625Z 16012KT 23/19 A2996 RMK A01 T02310194  RH  080%=      5-min Rain = 0
KCH1 260626Z 16012KT 23/19 A2996 RMK A01 T02310194  RH  079%=      5-min Rain = 0
KCH1 260627Z 16011KT 23/19 A2996 RMK A01 T02320194  RH  079%=      5-min Rain = 0
KCH1 260628Z 16010KT 23/19 A2996 RMK A01 T02320194  RH  079%=      5-min Rain = 0
KCH1 260629Z 15009KT 23/19 A2996 RMK A01 T02320194  RH  079%=      5-min Rain = 0
KCH1 260630Z 16011KT 23/19 A2996 RMK A01 T02310194  RH  080%=      5-min Rain = 0
KCH1 260631Z 15009KT 23/19 A2996 RMK A01 T02310194  RH  080%=      5-min Rain = 0
KCH1 260632Z 15010KT 23/19 A2996 RMK A01 T02310194  RH  080%=      5-min Rain = 0
KCH1 260633Z 15011KT 23/19 A2996 RMK A01 T02300194  RH  080%=      5-min Rain = 0
KCH1 260634Z 15010KT 23/19 A2996 RMK A01 T02300194  RH  080%=      5-min Rain = 0
KCH1 260635Z 16010KT 23/19 A2996 RMK A01 T02300194  RH  080%=      5-min Rain = 0
KCH1 260636Z 16008KT 23/20 A2996 RMK A01 T02300195  RH  080%=      5-min Rain = 0
KCH1 260637Z 15010KT 23/19 A2996 RMK A01 T02300194  RH  081%=      5-min Rain = 0
KCH1 260638Z 15008G13KT 23/20 A2996 RMK A01 T02300195  RH  081%=      5-min Rain = 0
KCH1 260639Z 15009KT 23/19 A2996 RMK A01 T02290194  RH  081%=      5-min Rain = 0
KCH1 260640Z 15009KT 23/19 A2996 RMK A01 T02290194  RH  081%=      5-min Rain = 0
KCH1 260641Z 15011KT 23/20 A2996 RMK A01 T02290195  RH  081%=      5-min Rain = 0
KCH1 260642Z 16009KT 23/19 A2996 RMK A01 T02290194  RH  081%=      5-min Rain = 0
KCH1 260643Z 16011KT 23/19 A2996 RMK A01 T02290194  RH  081%=      5-min Rain = 0
KCH1 260644Z 15009KT 23/19 A2996 RMK A01 T02290194  RH  081%=      5-min Rain = 0
KCH1 260645Z 15008KT 23/19 A2996 RMK A01 T02290194  RH  081%=      5-min Rain = 0
KCH1 260646Z 15008KT 23/20 A2996 RMK A01 T02290195  RH  081%=      5-min Rain = 0
KCH1 260647Z 15007KT 23/20 A2996 RMK A01 T02290195  RH  081%=      5-min Rain = 0
KCH1 260648Z 15007KT 23/20 A2997 RMK A01 T02280195  RH  081%=      5-min Rain = 0
KCH1 260649Z 15008KT 23/20 A2997 RMK A01 T02280195  RH  082%=      5-min Rain = 0
KCH1 260650Z 15006KT 23/20 A2997 RMK A01 T02270195  RH  082%=      5-min Rain = 0
KCH1 260651Z 15007KT 23/20 A2997 RMK A01 T02260195  RH  082%=      5-min Rain = 0
KCH1 260652Z 15008KT 23/20 A2997 RMK A01 T02260195  RH  083%=      5-min Rain = 0
KCH1 260653Z 15007KT 23/20 A2997 RMK A01 T02260195  RH  083%=      5-min Rain = 0
KCH1 260654Z 14006KT 23/20 A2997 RMK A01 T02250195  RH  083%=      5-min Rain = 0
KCH1 260655Z 15007KT 23/20 A2997 RMK A01 T02250195  RH  083%=      5-min Rain = 0
KCH1 260656Z 14007KT 23/20 A2997 RMK A01 T02250195  RH  083%=      5-min Rain = 0
KCH1 260657Z 14008KT 22/20 A2996 RMK A01 T02240195  RH  083%=      5-min Rain = 0
KCH1 260658Z 14007KT 23/20 A2996 RMK A01 T02250195  RH  083%=      5-min Rain = 0
KCH1 260659Z 14008KT 22/20 A2996 RMK A01 T02240195  RH  084%=      5-min Rain = 0
KCH1 260700Z 14008KT 22/20 A2996 RMK A01 T02240195  RH  084%=      5-min Rain = 0
KCH1 260701Z 15008KT 23/20 A2996 RMK A01 T02250195  RH  083%=      5-min Rain = 0
KCH1 260702Z 14010KT 23/20 A2996 RMK A01 T02250195  RH  083%=      5-min Rain = 0
KCH1 260703Z 15009KT 23/20 A2996 RMK A01 T02250195  RH  083%=      5-min Rain = 0
KCH1 260704Z 14007KT 23/20 A2996 RMK A01 T02250195  RH  083%=      5-min Rain = 0
KCH1 260705Z 14006KT 23/20 A2996 RMK A01 T02250195  RH  083%=      5-min Rain = 0
KCH1 260706Z 15008KT 22/20 A2996 RMK A01 T02240195  RH  084%=      5-min Rain = 0
KCH1 260707Z 14007KT 22/20 A2996 RMK A01 T02240195  RH  084%=      5-min Rain = 0
KCH1 260708Z 14007KT 22/20 A2996 RMK A01 T02230195  RH  084%=      5-min Rain = 0
KCH1 260709Z 14008KT 22/20 A2996 RMK A01 T02230195  RH  084%=      5-min Rain = 0
KCH1 260710Z 15008KT 22/20 A2996 RMK A01 T02230195  RH  084%=      5-min Rain = 0
KCH1 260711Z 15007KT 22/20 A2996 RMK A01 T02230195  RH  084%=      5-min Rain = 0
KCH1 260712Z 14005KT 22/20 A2996 RMK A01 T02230196  RH  084%=      5-min Rain = 0
KCH1 260713Z 14005KT 22/20 A2996 RMK A01 T02230196  RH  085%=      5-min Rain = 0
KCH1 260714Z 14006KT 22/20 A2996 RMK A01 T02220195  RH  085%=      5-min Rain = 0
KCH1 260715Z 14005KT 22/20 A2996 RMK A01 T02210195  RH  085%=      5-min Rain = 0
KCH1 260716Z 14006KT 22/20 A2996 RMK A01 T02210195  RH  085%=      5-min Rain = 0
KCH1 260717Z 14007KT 22/20 A2996 RMK A01 T02210195  RH  085%=      5-min Rain = 0
KCH1 260718Z 14009KT 22/20 A2996 RMK A01 T02210195  RH  085%=      5-min Rain = 0
KCH1 260719Z 14007KT 22/20 A2996 RMK A01 T02210195  RH  085%=      5-min Rain = 0
KCH1 260720Z 14007KT 22/20 A2996 RMK A01 T02210195  RH  085%=      5-min Rain = 0
KCH1 260721Z 14006KT 22/20 A2996 RMK A01 T02210195  RH  085%=      5-min Rain = 0
KCH1 260722Z 14005KT 22/20 A2996 RMK A01 T02210196  RH  085%=      5-min Rain = 0
KCH1 260723Z 15006KT 22/20 A2996 RMK A01 T02200195  RH  086%=      5-min Rain = 0
KCH1 260724Z 14007KT 22/20 A2996 RMK A01 T02200196  RH  086%=      5-min Rain = 0
KCH1 260725Z 14008KT 22/20 A2996 RMK A01 T02200195  RH  086%=      5-min Rain = 0
KCH1 260726Z 14007KT 22/20 A2996 RMK A01 T02200195  RH  086%=      5-min Rain = 0
KCH1 260727Z 14007KT 22/20 A2996 RMK A01 T02210196  RH  086%=      5-min Rain = 0
KCH1 260728Z 14006KT 22/20 A2996 RMK A01 T02200196  RH  086%=      5-min Rain = 0
KCH1 260729Z 14006KT 22/20 A2996 RMK A01 T02190196  RH  086%=      5-min Rain = 0
KCH1 260730Z 14006KT 22/20 A2996 RMK A01 T02190196  RH  087%=      5-min Rain = 0
KCH1 260731Z 14007KT 22/20 A2996 RMK A01 T02180196  RH  087%=      5-min Rain = 0
KCH1 260732Z 15006KT 22/20 A2996 RMK A01 T02180196  RH  087%=      5-min Rain = 0
KCH1 260733Z 15007KT 22/20 A2996 RMK A01 T02180196  RH  087%=      5-min Rain = 0
KCH1 260734Z 14007KT 22/20 A2996 RMK A01 T02180196  RH  087%=      5-min Rain = 0
KCH1 260735Z 15006KT 22/20 A2996 RMK A01 T02180196  RH  087%=      5-min Rain = 0
KCH1 260736Z 15006KT 22/20 A2996 RMK A01 T02170196  RH  088%=      5-min Rain = 0
KCH1 260737Z 15007KT 22/20 A2996 RMK A01 T02170196  RH  088%=      5-min Rain = 0
KCH1 260738Z 15006KT 22/20 A2996 RMK A01 T02170196  RH  088%=      5-min Rain = 0
KCH1 260739Z 14006KT 22/20 A2996 RMK A01 T02170196  RH  088%=      5-min Rain = 0
KCH1 260740Z 15005KT 22/20 A2997 RMK A01 T02160196  RH  088%=      5-min Rain = 0
KCH1 260741Z 15006KT 22/20 A2997 RMK A01 T02160196  RH  088%=      5-min Rain = 0
KCH1 260742Z 14007KT 22/20 A2997 RMK A01 T02160196  RH  088%=      5-min Rain = 0
KCH1 260743Z 14006KT 22/20 A2997 RMK A01 T02160196  RH  088%=      5-min Rain = 0
KCH1 260744Z 14007KT 22/20 A2997 RMK A01 T02160196  RH  088%=      5-min Rain = 0
KCH1 260745Z 14007KT 22/20 A2997 RMK A01 T02160196  RH  088%=      5-min Rain = 0
KCH1 260746Z 14006KT 22/20 A2997 RMK A01 T02160196  RH  088%=      5-min Rain = 0
KCH1 260747Z 14006KT 22/20 A2997 RMK A01 T02160195  RH  088%=      5-min Rain = 0
KCH1 260748Z 14007KT 22/20 A2997 RMK A01 T02160196  RH  088%=      5-min Rain = 0
KCH1 260749Z 14007KT 22/20 A2997 RMK A01 T02160196  RH  088%=      5-min Rain = 0
KCH1 260750Z 14008KT 22/20 A2997 RMK A01 T02160196  RH  088%=      5-min Rain = 0
KCH1 260751Z 14008KT 22/20 A2997 RMK A01 T02160196  RH  088%=      5-min Rain = 0
KCH1 260752Z 14007KT 22/20 A2997 RMK A01 T02160196  RH  088%=      5-min Rain = 0
KCH1 260753Z 15007KT 22/20 A2997 RMK A01 T02160196  RH  088%=      5-min Rain = 0
KCH1 260754Z 14008KT 22/20 A2997 RMK A01 T02150196  RH  089%=      5-min Rain = 0
KCH1 260755Z 14008KT 22/20 A2997 RMK A01 T02150196  RH  089%=      5-min Rain = 0
KCH1 260756Z 14007KT 22/20 A2997 RMK A01 T02150196  RH  089%=      5-min Rain = 0
KCH1 260757Z 14008KT 22/20 A2997 RMK A01 T02150196  RH  089%=      5-min Rain = 0
KCH1 260758Z 14007KT 22/20 A2996 RMK A01 T02150196  RH  089%=      5-min Rain = 0
KCH1 260759Z 14006KT 21/20 A2996 RMK A01 T02140196  RH  089%=      5-min Rain = 0
KCH1 260800Z 14008KT 21/20 A2996 RMK A01 T02140196  RH  089%=      5-min Rain = 0
KCH1 260801Z 14007KT 21/20 A2996 RMK A01 T02130196  RH  090%=      5-min Rain = 0
KCH1 260802Z 14008KT 21/20 A2996 RMK A01 T02130195  RH  089%=      5-min Rain = 0
KCH1 260803Z 14008KT 21/20 A2996 RMK A01 T02140195  RH  089%=      5-min Rain = 0
KCH1 260804Z 14008KT 21/20 A2996 RMK A01 T02130195  RH  089%=      5-min Rain = 0
KCH1 260805Z 14007KT 21/20 A2996 RMK A01 T02140196  RH  089%=      5-min Rain = 0
KCH1 260806Z 14009KT 21/20 A2996 RMK A01 T02130195  RH  090%=      5-min Rain = 0
KCH1 260807Z 14009KT 21/20 A2997 RMK A01 T02130195  RH  090%=      5-min Rain = 0
KCH1 260808Z 14009KT 21/20 A2997 RMK A01 T02130195  RH  090%=      5-min Rain = 0
KCH1 260809Z 14006KT 21/20 A2997 RMK A01 T02130196  RH  090%=      5-min Rain = 0
KCH1 260810Z 14008KT 21/20 A2997 RMK A01 T02130196  RH  090%=      5-min Rain = 0
KCH1 260811Z 14008KT 21/20 A2997 RMK A01 T02130195  RH  090%=      5-min Rain = 0
KCH1 260812Z 14007KT 21/20 A2997 RMK A01 T02130195  RH  090%=      5-min Rain = 0
KCH1 260813Z 14007KT 21/20 A2997 RMK A01 T02130195  RH  090%=      5-min Rain = 0
KCH1 260814Z 14007KT 21/20 A2997 RMK A01 T02130195  RH  090%=      5-min Rain = 0
KCH1 260815Z 14008KT 21/20 A2997 RMK A01 T02130195  RH  090%=      5-min Rain = 0
KCH1 260816Z 14006KT 21/20 A2997 RMK A01 T02130196  RH  090%=      5-min Rain = 0
KCH1 260817Z 13007KT 21/20 A2997 RMK A01 T02120195  RH  090%=      5-min Rain = 0
KCH1 260818Z 14007KT 21/20 A2997 RMK A01 T02120195  RH  090%=      5-min Rain = 0
KCH1 260819Z 13008KT 21/20 A2997 RMK A01 T02120195  RH  090%=      5-min Rain = 0
KCH1 260820Z 13008KT 21/20 A2997 RMK A01 T02120195  RH  090%=      5-min Rain = 0
KCH1 260821Z 14009KT 21/20 A2997 RMK A01 T02120195  RH  090%=      5-min Rain = 0
KCH1 260822Z 14009KT 21/20 A2997 RMK A01 T02120195  RH  090%=      5-min Rain = 0
KCH1 260823Z 14008KT 21/20 A2997 RMK A01 T02120195  RH  090%=      5-min Rain = 0
KCH1 260824Z 14008KT 21/20 A2996 RMK A01 T02120195  RH  090%=      5-min Rain = 0
KCH1 260825Z 14009KT 21/20 A2996 RMK A01 T02120195  RH  090%=      5-min Rain = 0
KCH1 260826Z 14008KT 21/20 A2996 RMK A01 T02120195  RH  090%=      5-min Rain = 0
KCH1 260827Z 14007KT 21/20 A2996 RMK A01 T02120195  RH  090%=      5-min Rain = 0
KCH1 260828Z 14009KT 21/20 A2996 RMK A01 T02110195  RH  090%=      5-min Rain = 0
KCH1 260829Z 15010KT 21/20 A2996 RMK A01 T02110195  RH  090%=      5-min Rain = 0
KCH1 260830Z 14009KT 21/20 A2996 RMK A01 T02110195  RH  090%=      5-min Rain = 0
KCH1 260831Z 14009KT 21/20 A2996 RMK A01 T02110195  RH  090%=      5-min Rain = 0
KCH1 260832Z 15008KT 21/20 A2996 RMK A01 T02110195  RH  090%=      5-min Rain = 0
KCH1 260833Z 14008KT 21/20 A2996 RMK A01 T02110195  RH  090%=      5-min Rain = 0
KCH1 260834Z 15007KT 21/20 A2996 RMK A01 T02110195  RH  090%=      5-min Rain = 0
KCH1 260835Z 15006KT 21/20 A2996 RMK A01 T02110195  RH  091%=      5-min Rain = 0
KCH1 260836Z 15008KT 21/20 A2996 RMK A01 T02100195  RH  091%=      5-min Rain = 0
KCH1 260837Z 15008KT 21/20 A2996 RMK A01 T02100195  RH  091%=      5-min Rain = 0
KCH1 260838Z 14008KT 21/20 A2996 RMK A01 T02100195  RH  091%=      5-min Rain = 0
KCH1 260839Z 14009KT 21/20 A2996 RMK A01 T02090195  RH  091%=      5-min Rain = 0
KCH1 260840Z 15008KT 21/20 A2996 RMK A01 T02090195  RH  091%=      5-min Rain = 0
KCH1 260841Z 14009KT 21/20 A2996 RMK A01 T02100195  RH  091%=      5-min Rain = 0
KCH1 260842Z 14010KT 21/20 A2996 RMK A01 T02100195  RH  091%=      5-min Rain = 0
KCH1 260843Z 14009KT 21/20 A2996 RMK A01 T02110195  RH  091%=      5-min Rain = 0
KCH1 260844Z 14009KT 21/20 A2996 RMK A01 T02100195  RH  091%=      5-min Rain = 0
KCH1 260845Z 15007KT 21/20 A2996 RMK A01 T02110195  RH  091%=      5-min Rain = 0
KCH1 260846Z 15007KT 21/20 A2996 RMK A01 T02100195  RH  091%=      5-min Rain = 0
KCH1 260847Z 14008KT 21/20 A2996 RMK A01 T02100195  RH  091%=      5-min Rain = 0
KCH1 260848Z 15009KT 21/20 A2996 RMK A01 T02100195  RH  091%=      5-min Rain = 0
KCH1 260849Z 15008KT 21/20 A2996 RMK A01 T02090195  RH  091%=      5-min Rain = 0
KCH1 260850Z 14008KT 21/20 A2996 RMK A01 T02090195  RH  092%=      5-min Rain = 0
KCH1 260851Z 15010KT 21/20 A2996 RMK A01 T02080195  RH  092%=      5-min Rain = 0
KCH1 260852Z 15008KT 21/19 A2996 RMK A01 T02080194  RH  092%=      5-min Rain = 0
KCH1 260853Z 15009KT 21/20 A2996 RMK A01 T02080195  RH  092%=      5-min Rain = 0
KCH1 260854Z 15009KT 21/19 A2996 RMK A01 T02080194  RH  092%=      5-min Rain = 0
KCH1 260855Z 15009KT 21/19 A2996 RMK A01 T02080194  RH  092%=      5-min Rain = 0
KCH1 260856Z 15012KT 21/19 A2996 RMK A01 T02080194  RH  092%=      5-min Rain = 0
KCH1 260857Z 15010KT 21/19 A2996 RMK A01 T02090194  RH  091%=      5-min Rain = 0
KCH1 260858Z 15012KT 21/19 A2996 RMK A01 T02090194  RH  091%=      5-min Rain = 0
KCH1 260859Z 14011KT 21/19 A2996 RMK A01 T02090194  RH  091%=      5-min Rain = 0
KCH1 260900Z 15010KT 21/19 A2996 RMK A01 T02090194  RH  091%=      5-min Rain = 0
KCH1 260901Z 15007KT 21/19 A2996 RMK A01 T02100194  RH  091%=      5-min Rain = 0
KCH1 260902Z 15009KT 21/19 A2996 RMK A01 T02090194  RH  091%=      5-min Rain = 0
KCH1 260903Z 15010KT 21/19 A2996 RMK A01 T02090194  RH  091%=      5-min Rain = 0
KCH1 260904Z 15009KT 21/19 A2996 RMK A01 T02090194  RH  091%=      5-min Rain = 0
KCH1 260905Z 15009KT 21/19 A2996 RMK A01 T02080194  RH  091%=      5-min Rain = 0
KCH1 260906Z 15008KT 21/19 A2996 RMK A01 T02080194  RH  092%=      5-min Rain = 0
KCH1 260907Z 15009KT 21/19 A2996 RMK A01 T02080194  RH  092%=      5-min Rain = 0
KCH1 260908Z 15010KT 21/19 A2996 RMK A01 T02080194  RH  092%=      5-min Rain = 0
KCH1 260909Z 15009KT 21/19 A2996 RMK A01 T02080194  RH  092%=      5-min Rain = 0
KCH1 260910Z 15009KT 21/19 A2996 RMK A01 T02080194  RH  092%=      5-min Rain = 0
KCH1 260911Z 15008KT 21/19 A2996 RMK A01 T02070194  RH  092%=      5-min Rain = 0
KCH1 260912Z 15009KT 21/19 A2996 RMK A01 T02070193  RH  092%=      5-min Rain = 0
KCH1 260913Z 14007KT 21/19 A2996 RMK A01 T02070194  RH  092%=      5-min Rain = 0
KCH1 260914Z 15008KT 21/19 A2996 RMK A01 T02070193  RH  092%=      5-min Rain = 0
KCH1 260915Z 15009KT 21/19 A2996 RMK A01 T02070194  RH  092%=      5-min Rain = 0
KCH1 260916Z 15007KT 21/19 A2996 RMK A01 T02070193  RH  092%=      5-min Rain = 0
KCH1 260917Z 15007KT 21/19 A2996 RMK A01 T02070193  RH  092%=      5-min Rain = 0
KCH1 260918Z 15007KT 21/19 A2996 RMK A01 T02060193  RH  092%=      5-min Rain = 0
KCH1 260919Z 15009KT 21/19 A2996 RMK A01 T02060194  RH  093%=      5-min Rain = 0
KCH1 260920Z 14009KT 21/19 A2996 RMK A01 T02060194  RH  093%=      5-min Rain = 0
KCH1 260921Z 15009KT 21/19 A2996 RMK A01 T02060194  RH  093%=      5-min Rain = 0
KCH1 260922Z 14007KT 21/19 A2996 RMK A01 T02060193  RH  093%=      5-min Rain = 0
KCH1 260923Z 15009KT 21/19 A2996 RMK A01 T02060194  RH  093%=      5-min Rain = 0
KCH1 260924Z 14008KT 21/19 A2996 RMK A01 T02050194  RH  093%=      5-min Rain = 0
KCH1 260925Z 14010KT 21/19 A2996 RMK A01 T02050194  RH  093%=      5-min Rain = 0
KCH1 260926Z 14010KT 21/19 A2996 RMK A01 T02050194  RH  093%=      5-min Rain = 0
KCH1 260927Z 14008KT 21/19 A2996 RMK A01 T02050193  RH  093%=      5-min Rain = 0
KCH1 260928Z 14010KT 21/19 A2996 RMK A01 T02060194  RH  093%=      5-min Rain = 0
KCH1 260929Z 14009KT 21/19 A2996 RMK A01 T02050194  RH  093%=      5-min Rain = 0
KCH1 260930Z 15008KT 21/19 A2996 RMK A01 T02050194  RH  093%=      5-min Rain = 0
KCH1 260931Z 15008KT 21/19 A2996 RMK A01 T02050193  RH  093%=      5-min Rain = 0
KCH1 260932Z 15007KT 21/19 A2996 RMK A01 T02050194  RH  093%=      5-min Rain = 0
KCH1 260933Z 15009KT 21/19 A2996 RMK A01 T02050194  RH  093%=      5-min Rain = 0
KCH1 260934Z 15007KT 20/19 A2996 RMK A01 T02040193  RH  094%=      5-min Rain = 0
KCH1 260935Z 15008KT 20/19 A2996 RMK A01 T02040193  RH  094%=      5-min Rain = 0
KCH1 260936Z 14007KT 20/19 A2996 RMK A01 T02040194  RH  094%=      5-min Rain = 0
KCH1 260937Z 15006KT 20/19 A2997 RMK A01 T02040194  RH  094%=      5-min Rain = 0
KCH1 260938Z 15006KT 20/19 A2996 RMK A01 T02040193  RH  094%=      5-min Rain = 0
KCH1 260939Z 15008KT 20/19 A2996 RMK A01 T02030193  RH  094%=      5-min Rain = 0
KCH1 260940Z 15007KT 20/19 A2996 RMK A01 T02030194  RH  094%=      5-min Rain = 0
KCH1 260941Z 15005KT 20/19 A2997 RMK A01 T02030193  RH  094%=      5-min Rain = 0
KCH1 260942Z 15006KT 20/19 A2997 RMK A01 T02020193  RH  095%=      5-min Rain = 0
KCH1 260943Z 15008KT 20/19 A2997 RMK A01 T02020194  RH  095%=      5-min Rain = 0
KCH1 260944Z 15009KT 20/19 A2997 RMK A01 T02020194  RH  095%=      5-min Rain = 0
KCH1 260945Z 15007KT 20/19 A2997 RMK A01 T02030194  RH  095%=      5-min Rain = 0
KCH1 260946Z 15007KT 20/19 A2997 RMK A01 T02030193  RH  094%=      5-min Rain = 0
KCH1 260947Z 15007KT 20/19 A2997 RMK A01 T02030194  RH  094%=      5-min Rain = 0
KCH1 260948Z 14006KT 20/19 A2997 RMK A01 T02020193  RH  095%=      5-min Rain = 0
KCH1 260949Z 15009KT 20/19 A2997 RMK A01 T02020193  RH  095%=      5-min Rain = 0
KCH1 260950Z 13006KT 20/19 A2997 RMK A01 T02020193  RH  095%=      5-min Rain = 0
KCH1 260951Z 14009KT 20/19 A2997 RMK A01 T02020193  RH  095%=      5-min Rain = 0
KCH1 260952Z 15006KT 20/19 A2997 RMK A01 T02020194  RH  095%=      5-min Rain = 0
KCH1 260953Z 14008KT 20/19 A2997 RMK A01 T02020193  RH  095%=      5-min Rain = 0
KCH1 260954Z 14008KT 20/19 A2997 RMK A01 T02010193  RH  095%=      5-min Rain = 0
KCH1 260955Z 14007KT 20/19 A2997 RMK A01 T02010193  RH  095%=      5-min Rain = 0
KCH1 260956Z 15007KT 20/19 A2997 RMK A01 T02010193  RH  095%=      5-min Rain = 0
KCH1 260957Z 15008KT 20/19 A2997 RMK A01 T02010193  RH  095%=      5-min Rain = 0
KCH1 260958Z 15008KT 20/19 A2997 RMK A01 T02010193  RH  095%=      5-min Rain = 0
KCH1 260959Z 14007KT 20/19 A2997 RMK A01 T02010193  RH  095%=      5-min Rain = 0
KCH1 261000Z 15007KT 20/19 A2997 RMK A01 T02010193  RH  095%=      5-min Rain = 0
KCH1 261001Z 15007KT 20/19 A2997 RMK A01 T02010193  RH  095%=      5-min Rain = 0
KCH1 261002Z 15009KT 20/19 A2997 RMK A01 T02010193  RH  095%=      5-min Rain = 0
KCH1 261003Z 15009KT 20/19 A2997 RMK A01 T02010193  RH  095%=      5-min Rain = 0
KCH1 261004Z 14007KT 20/19 A2997 RMK A01 T02010193  RH  095%=      5-min Rain = 0
KCH1 261005Z 15008KT 20/19 A2997 RMK A01 T02010192  RH  095%=      5-min Rain = 0
KCH1 261006Z 15006KT 20/19 A2997 RMK A01 T02010193  RH  095%=      5-min Rain = 0
KCH1 261007Z 15008KT 20/19 A2997 RMK A01 T02010193  RH  095%=      5-min Rain = 0
KCH1 261008Z 15009KT 20/19 A2997 RMK A01 T02010193  RH  095%=      5-min Rain = 0
KCH1 261009Z 15007KT 20/19 A2997 RMK A01 T02010192  RH  095%=      5-min Rain = 0
KCH1 261010Z 15008KT 20/19 A2997 RMK A01 T02010193  RH  095%=      5-min Rain = 0
KCH1 261011Z 15007KT 20/19 A2997 RMK A01 T02000192  RH  095%=      5-min Rain = 0
KCH1 261012Z 15007KT 20/19 A2997 RMK A01 T02000192  RH  095%=      5-min Rain = 0
KCH1 261013Z 15008KT 20/19 A2997 RMK A01 T01990192  RH  095%=      5-min Rain = 0
KCH1 261014Z 15007KT 20/19 A2997 RMK A01 T01990192  RH  095%=      5-min Rain = 0
KCH1 261015Z 14007KT 20/19 A2997 RMK A01 T01990192  RH  095%=      5-min Rain = 0
KCH1 261016Z 14008KT 20/19 A2997 RMK A01 T01990192  RH  095%=      5-min Rain = 0
KCH1 261017Z 14006KT 20/19 A2997 RMK A01 T01990192  RH  095%=      5-min Rain = 0
KCH1 261018Z 14007KT 20/19 A2997 RMK A01 T01990191  RH  095%=      5-min Rain = 0
KCH1 261019Z 14008KT 20/19 A2997 RMK A01 T01990191  RH  096%=      5-min Rain = 0
KCH1 261020Z 14008KT 20/19 A2997 RMK A01 T01990191  RH  096%=      5-min Rain = 0
KCH1 261021Z 15007KT 20/19 A2997 RMK A01 T01990191  RH  096%=      5-min Rain = 0
KCH1 261022Z 14008KT 20/19 A2997 RMK A01 T01980191  RH  096%=      5-min Rain = 0
KCH1 261023Z 15008KT 20/19 A2997 RMK A01 T01980191  RH  096%=      5-min Rain = 0
KCH1 261024Z 15009KT 20/19 A2997 RMK A01 T01980190  RH  095%=      5-min Rain = 0
KCH1 261025Z 14008KT 20/19 A2997 RMK A01 T01980191  RH  095%=      5-min Rain = 0
KCH1 261026Z 14008KT 20/19 A2997 RMK A01 T01980190  RH  095%=      5-min Rain = 0
KCH1 261027Z 14007KT 20/19 A2997 RMK A01 T01980190  RH  095%=      5-min Rain = 0
KCH1 261028Z 15008KT 20/19 A2997 RMK A01 T01980190  RH  095%=      5-min Rain = 0
KCH1 261029Z 14007KT 20/19 A2998 RMK A01 T01980190  RH  095%=      5-min Rain = 0
KCH1 261030Z 15008KT 20/19 A2998 RMK A01 T01980190  RH  095%=      5-min Rain = 0
KCH1 261031Z 14009KT 20/19 A2998 RMK A01 T01970190  RH  095%=      5-min Rain = 0
KCH1 261032Z 14009KT 20/19 A2998 RMK A01 T01970189  RH  095%=      5-min Rain = 0
KCH1 261033Z 14008KT 20/19 A2998 RMK A01 T01970189  RH  095%=      5-min Rain = 0
KCH1 261034Z 14007KT 20/19 A2998 RMK A01 T01980189  RH  095%=      5-min Rain = 0
KCH1 261035Z 15010KT 20/19 A2998 RMK A01 T01970189  RH  095%=      5-min Rain = 0
KCH1 261036Z 14007KT 20/19 A2998 RMK A01 T01970189  RH  095%=      5-min Rain = 0
KCH1 261037Z 14009KT 20/19 A2998 RMK A01 T01970189  RH  095%=      5-min Rain = 0
KCH1 261038Z 14006KT 20/19 A2998 RMK A01 T01970189  RH  095%=      5-min Rain = 0
KCH1 261039Z 14008KT 20/19 A2998 RMK A01 T01970189  RH  095%=      5-min Rain = 0
KCH1 261040Z 14008KT 20/19 A2998 RMK A01 T01970189  RH  095%=      5-min Rain = 0
KCH1 261041Z 14008KT 20/19 A2998 RMK A01 T01970189  RH  095%=      5-min Rain = 0
KCH1 261042Z 14007KT 20/19 A2998 RMK A01 T01970189  RH  095%=      5-min Rain = 0
KCH1 261043Z 14009KT 20/19 A2998 RMK A01 T01970188  RH  095%=      5-min Rain = 0
KCH1 261044Z 13009G14KT 20/19 A2999 RMK A01 T01970188  RH  095%=      5-min Rain = 0
KCH1 261045Z 14008KT 20/19 A2999 RMK A01 T01970188  RH  094%=      5-min Rain = 0
KCH1 261046Z 14008KT 20/19 A2999 RMK A01 T01970188  RH  094%=      5-min Rain = 0
KCH1 261047Z 14008KT 20/19 A2999 RMK A01 T01970188  RH  094%=      5-min Rain = 0
KCH1 261048Z 14008KT 20/19 A2999 RMK A01 T01970188  RH  095%=      5-min Rain = 0
KCH1 261049Z 14009KT 20/19 A2999 RMK A01 T01970188  RH  095%=      5-min Rain = 0
KCH1 261050Z 14009KT 20/19 A2999 RMK A01 T01970188  RH  095%=      5-min Rain = 0
KCH1 261051Z 14008KT 20/19 A2999 RMK A01 T01970187  RH  094%=      5-min Rain = 0
KCH1 261052Z 14008KT 20/19 A2999 RMK A01 T01970188  RH  094%=      5-min Rain = 0
KCH1 261053Z 14007KT 20/19 A2999 RMK A01 T01970187  RH  094%=      5-min Rain = 0
KCH1 261054Z 15010KT 20/19 A2999 RMK A01 T01970187  RH  094%=      5-min Rain = 0
KCH1 261055Z 14006KT 20/19 A2999 RMK A01 T01970187  RH  094%=      5-min Rain = 0
KCH1 261056Z 15007KT 20/19 A2999 RMK A01 T01970187  RH  094%=      5-min Rain = 0
KCH1 261057Z 15008KT 20/19 A2999 RMK A01 T01960187  RH  094%=      5-min Rain = 0
KCH1 261058Z 15008KT 20/19 A2999 RMK A01 T01960187  RH  094%=      5-min Rain = 0
KCH1 261059Z 14008KT 20/19 A2999 RMK A01 T01960187  RH  094%=      5-min Rain = 0
KCH1 261100Z 15007KT 20/19 A2999 RMK A01 T01960187  RH  094%=      5-min Rain = 0
KCH1 261101Z 14009KT 20/19 A2999 RMK A01 T01960187  RH  094%=      5-min Rain = 0
KCH1 261102Z 14009KT 20/19 A2999 RMK A01 T01960187  RH  094%=      5-min Rain = 0
KCH1 261103Z 14008KT 20/19 A30 RMK A01 T01970187  RH  094%=      5-min Rain = 0
KCH1 261104Z 14009KT 20/19 A30 RMK A01 T01970188  RH  094%=      5-min Rain = 0
KCH1 261105Z 14008KT 20/19 A30 RMK A01 T01970187  RH  094%=      5-min Rain = 0
KCH1 261106Z 14006KT 20/19 A30 RMK A01 T01970187  RH  094%=      5-min Rain = 0
KCH1 261107Z 14007KT 20/19 A30 RMK A01 T01980188  RH  094%=      5-min Rain = 0
KCH1 261108Z 15009KT 20/19 A30 RMK A01 T01980188  RH  094%=      5-min Rain = 0
KCH1 261109Z 15009KT 20/19 A30 RMK A01 T01980187  RH  094%=      5-min Rain = 0
KCH1 261110Z 15007KT 20/19 A30 RMK A01 T01980187  RH  094%=      5-min Rain = 0
KCH1 261111Z 15007KT 20/19 A30 RMK A01 T01980187  RH  094%=      5-min Rain = 0
KCH1 261112Z 15007KT 20/19 A30 RMK A01 T01980187  RH  094%=      5-min Rain = 0
KCH1 261113Z 15007KT 20/19 A30 RMK A01 T01980188  RH  094%=      5-min Rain = 0
KCH1 261114Z 14006KT 20/19 A30 RMK A01 T01980187  RH  094%=      5-min Rain = 0
KCH1 261115Z 14008KT 20/19 A30 RMK A01 T01980188  RH  094%=      5-min Rain = 0
KCH1 261116Z 14007KT 20/19 A30 RMK A01 T01980188  RH  094%=      5-min Rain = 0
KCH1 261117Z 14006KT 20/19 A30 RMK A01 T01980187  RH  094%=      5-min Rain = 0
KCH1 261118Z 14007KT 20/19 A30 RMK A01 T01980187  RH  094%=      5-min Rain = 0
KCH1 261119Z 14007KT 20/19 A30 RMK A01 T01980187  RH  094%=      5-min Rain = 0
KCH1 261120Z 14009KT 20/19 A30 RMK A01 T01980187  RH  094%=      5-min Rain = 0
KCH1 261121Z 13007KT 20/19 A30 RMK A01 T01980187  RH  093%=      5-min Rain = 0
KCH1 261122Z 14006KT 20/19 A30 RMK A01 T01980187  RH  093%=      5-min Rain = 0
KCH1 261123Z 14008KT 20/19 A30 RMK A01 T01980187  RH  094%=      5-min Rain = 0
KCH1 261124Z 14007KT 20/19 A30 RMK A01 T01980187  RH  094%=      5-min Rain = 0
KCH1 261125Z 14009KT 20/19 A30 RMK A01 T01980187  RH  094%=      5-min Rain = 0
KCH1 261126Z 14007KT 20/19 A30 RMK A01 T01980187  RH  094%=      5-min Rain = 0
KCH1 261127Z 14008KT 20/19 A30 RMK A01 T01980187  RH  094%=      5-min Rain = 0
KCH1 261128Z 14008KT 20/19 A30 RMK A01 T01980187  RH  094%=      5-min Rain = 0
KCH1 261129Z 14008KT 20/19 A30 RMK A01 T01980187  RH  093%=      5-min Rain = 0
KCH1 261130Z 14009KT 20/19 A30 RMK A01 T01980187  RH  093%=      5-min Rain = 0
KCH1 261131Z 14008KT 20/19 A30 RMK A01 T01980186  RH  093%=      5-min Rain = 0
KCH1 261132Z 14006KT 20/19 A30 RMK A01 T01980186  RH  093%=      5-min Rain = 0
KCH1 261133Z 14007KT 20/19 A30 RMK A01 T01980187  RH  093%=      5-min Rain = 0
KCH1 261134Z 14009KT 20/19 A30 RMK A01 T01970187  RH  094%=      5-min Rain = 0
KCH1 261135Z 15009KT 20/19 A30 RMK A01 T01970186  RH  094%=      5-min Rain = 0
KCH1 261136Z 14007KT 20/19 A30 RMK A01 T01970186  RH  094%=      5-min Rain = 0
KCH1 261137Z 14007KT 20/19 A30 RMK A01 T01970186  RH  094%=      5-min Rain = 0
KCH1 261138Z 14007KT 20/19 A30 RMK A01 T01960186  RH  094%=      5-min Rain = 0
KCH1 261139Z 14007KT 20/19 A30 RMK A01 T01960186  RH  094%=      5-min Rain = 0
KCH1 261140Z 14009KT 20/19 A30 RMK A01 T01960186  RH  094%=      5-min Rain = 0
KCH1 261141Z 14009KT 20/19 A30 RMK A01 T01960186  RH  094%=      5-min Rain = 0
KCH1 261142Z 15009KT 20/19 A30 RMK A01 T01960186  RH  094%=      5-min Rain = 0
KCH1 261143Z 14007KT 20/19 A30 RMK A01 T01960186  RH  094%=      5-min Rain = 0
KCH1 261144Z 14009KT 20/19 A30 RMK A01 T01960186  RH  094%=      5-min Rain = 0
KCH1 261145Z 15006KT 20/19 A30 RMK A01 T01960186  RH  094%=      5-min Rain = 0
KCH1 261146Z 14006KT 20/19 A30 RMK A01 T01960186  RH  094%=      5-min Rain = 0
KCH1 261147Z 14008KT 20/19 A3001 RMK A01 T01950186  RH  094%=      5-min Rain = 0
KCH1 261148Z 14008KT 20/19 A3001 RMK A01 T01950186  RH  094%=      5-min Rain = 0
KCH1 261149Z 14007KT 20/19 A3001 RMK A01 T01950186  RH  094%=      5-min Rain = 0
KCH1 261150Z 15008KT 20/19 A3001 RMK A01 T01950186  RH  094%=      5-min Rain = 0
KCH1 261151Z 15007KT 20/19 A3001 RMK A01 T01950185  RH  094%=      5-min Rain = 0
KCH1 261152Z 15007KT 20/19 A3001 RMK A01 T01950185  RH  094%=      5-min Rain = 0
KCH1 261153Z 15006KT 20/19 A3001 RMK A01 T01950186  RH  094%=      5-min Rain = 0
KCH1 261154Z 14009KT 20/19 A3001 RMK A01 T01950186  RH  094%=      5-min Rain = 0
KCH1 261155Z 14006KT 20/19 A3001 RMK A01 T01950186  RH  095%=      5-min Rain = 0
KCH1 261156Z 14009KT 19/19 A3001 RMK A01 T01940185  RH  094%=      5-min Rain = 0
KCH1 261157Z 14007KT 20/19 A3001 RMK A01 T01950185  RH  094%=      5-min Rain = 0
KCH1 261158Z 14005KT 20/19 A3001 RMK A01 T01950185  RH  094%=      5-min Rain = 0
KCH1 261159Z 15007KT 20/19 A3001 RMK A01 T01950185  RH  094%=      5-min Rain = 0
KCH1 261200Z 14007KT 19/19 A3001 RMK A01 T01940185  RH  094%=      5-min Rain = 0
KCH1 261201Z 14005KT 19/19 A3001 RMK A01 T01940185  RH  095%=      5-min Rain = 0
KCH1 261202Z 14007KT 20/19 A3001 RMK A01 T01950186  RH  095%=      5-min Rain = 0
KCH1 261203Z 14007KT 19/19 A3001 RMK A01 T01940185  RH  095%=      5-min Rain = 0
KCH1 261204Z 14007KT 19/19 A3001 RMK A01 T01940185  RH  095%=      5-min Rain = 0
KCH1 261205Z 15008KT 19/19 A3001 RMK A01 T01940185  RH  095%=      5-min Rain = 0
KCH1 261206Z 14007KT 19/19 A3001 RMK A01 T01940185  RH  095%=      5-min Rain = 0
KCH1 261207Z 14007KT 19/19 A3001 RMK A01 T01940185  RH  095%=      5-min Rain = 0
KCH1 261208Z 13005KT 19/19 A3001 RMK A01 T01940185  RH  095%=      5-min Rain = 0
KCH1 261209Z 14007KT 19/19 A3001 RMK A01 T01940185  RH  095%=      5-min Rain = 0
KCH1 261210Z 14006KT 19/19 A3001 RMK A01 T01940185  RH  095%=      5-min Rain = 0
KCH1 261211Z 14007KT 20/19 A3001 RMK A01 T01950186  RH  095%=      5-min Rain = 0
KCH1 261212Z 14006KT 19/19 A3002 RMK A01 T01940186  RH  095%=      5-min Rain = 0
KCH1 261213Z 14006KT 19/19 A3002 RMK A01 T01940186  RH  095%=      5-min Rain = 0
KCH1 261214Z 14007KT 20/19 A3002 RMK A01 T01950187  RH  095%=      5-min Rain = 0
KCH1 261215Z 14005KT 20/19 A3002 RMK A01 T01950187  RH  095%=      5-min Rain = 0
KCH1 261216Z 14008KT 19/19 A3002 RMK A01 T01940186  RH  095%=      5-min Rain = 0
KCH1 261217Z 14009KT 20/19 A3002 RMK A01 T01950186  RH  095%=      5-min Rain = 0
KCH1 261218Z 14007KT 20/19 A3002 RMK A01 T01950186  RH  094%=      5-min Rain = 0
KCH1 261219Z 14008KT 20/19 A3002 RMK A01 T01960186  RH  094%=      5-min Rain = 0
KCH1 261220Z 14008KT 20/19 A3002 RMK A01 T01960186  RH  094%=      5-min Rain = 0
KCH1 261221Z 15008KT 20/19 A3002 RMK A01 T01970187  RH  094%=      5-min Rain = 0
KCH1 261222Z 14006KT 20/19 A3003 RMK A01 T01960186  RH  094%=      5-min Rain = 0
KCH1 261223Z 15006KT 20/19 A3003 RMK A01 T01970187  RH  094%=      5-min Rain = 0
KCH1 261224Z 15007KT 20/19 A3003 RMK A01 T01970187  RH  094%=      5-min Rain = 0
KCH1 261225Z 14007KT 20/19 A3003 RMK A01 T01970187  RH  094%=      5-min Rain = 0
KCH1 261226Z 15006KT 20/19 A3002 RMK A01 T01970187  RH  094%=      5-min Rain = 0
KCH1 261227Z 14006KT 20/19 A3002 RMK A01 T01970187  RH  093%=      5-min Rain = 0
KCH1 261228Z 15006KT 20/19 A3002 RMK A01 T01980187  RH  094%=      5-min Rain = 0
KCH1 261229Z 16007KT 20/19 A3002 RMK A01 T01980187  RH  093%=      5-min Rain = 0
KCH1 261230Z 16007KT 20/19 A3003 RMK A01 T01980187  RH  093%=      5-min Rain = 0
KCH1 261231Z 15006KT 20/19 A3003 RMK A01 T01980187  RH  093%=      5-min Rain = 0
KCH1 261232Z 15008KT 20/19 A3003 RMK A01 T01980186  RH  093%=      5-min Rain = 0
KCH1 261233Z 16009KT 20/19 A3003 RMK A01 T01990186  RH  092%=      5-min Rain = 0
KCH1 261234Z 16008KT 20/19 A3003 RMK A01 T01990186  RH  092%=      5-min Rain = 0
KCH1 261235Z 16008KT 20/19 A3003 RMK A01 T01990186  RH  092%=      5-min Rain = 0
KCH1 261236Z 15010KT 20/19 A3003 RMK A01 T01990186  RH  092%=      5-min Rain = 0
KCH1 261237Z 15008KT 20/19 A3003 RMK A01 T02000186  RH  092%=      5-min Rain = 0
KCH1 261238Z 15011KT 20/19 A3003 RMK A01 T02000186  RH  092%=      5-min Rain = 0
KCH1 261239Z 16008KT 20/19 A3003 RMK A01 T02000186  RH  091%=      5-min Rain = 0
KCH1 261240Z 15007KT 20/19 A3003 RMK A01 T02010186  RH  091%=      5-min Rain = 0
KCH1 261241Z 14007KT 20/19 A3003 RMK A01 T02010187  RH  092%=      5-min Rain = 0
KCH1 261242Z 15005KT 20/19 A3003 RMK A01 T02010187  RH  092%=      5-min Rain = 0
KCH1 261243Z 15008KT 20/19 A3003 RMK A01 T02010187  RH  092%=      5-min Rain = 0
KCH1 261244Z 15007KT 20/19 A3003 RMK A01 T02020186  RH  091%=      5-min Rain = 0
KCH1 261245Z 16008KT 20/19 A3003 RMK A01 T02020187  RH  091%=      5-min Rain = 0
KCH1 261246Z 16008KT 20/19 A3003 RMK A01 T02020187  RH  091%=      5-min Rain = 0
KCH1 261247Z 15007KT 20/19 A3003 RMK A01 T02020186  RH  090%=      5-min Rain = 0
KCH1 261248Z 16005KT 20/19 A3003 RMK A01 T02030186  RH  090%=      5-min Rain = 0
KCH1 261249Z 15006KT 20/19 A3003 RMK A01 T02020187  RH  091%=      5-min Rain = 0
KCH1 261250Z 16006KT 20/19 A3003 RMK A01 T02030188  RH  091%=      5-min Rain = 0
KCH1 261251Z 15009KT 20/19 A3003 RMK A01 T02030187  RH  090%=      5-min Rain = 0
KCH1 261252Z 16007KT 20/19 A3003 RMK A01 T02030186  RH  090%=      5-min Rain = 0
KCH1 261253Z 15008KT 20/19 A3003 RMK A01 T02040187  RH  090%=      5-min Rain = 0
KCH1 261254Z 16006KT 20/19 A3003 RMK A01 T02040187  RH  090%=      5-min Rain = 0
KCH1 261255Z 15006KT 20/19 A3003 RMK A01 T02040187  RH  090%=      5-min Rain = 0
KCH1 261256Z 16009KT 20/19 A3003 RMK A01 T02040187  RH  090%=      5-min Rain = 0
KCH1 261257Z 15010KT 20/19 A3003 RMK A01 T02040186  RH  090%=      5-min Rain = 0
KCH1 261258Z 15008KT 20/19 A3003 RMK A01 T02040186  RH  090%=      5-min Rain = 0
KCH1 261259Z 16008KT 20/19 A3003 RMK A01 T02040186  RH  090%=      5-min Rain = 0
KCH1 261300Z 15007KT 20/19 A3003 RMK A01 T02040186  RH  090%=      5-min Rain = 0
KCH1 261301Z 16007KT 20/19 A3003 RMK A01 T02040187  RH  090%=      5-min Rain = 0
KCH1 261302Z 16007KT 20/19 A3003 RMK A01 T02040186  RH  090%=      5-min Rain = 0
KCH1 261303Z 16005KT 20/19 A3003 RMK A01 T02040187  RH  090%=      5-min Rain = 0
KCH1 261304Z 15007KT 21/19 A3003 RMK A01 T02050187  RH  090%=      5-min Rain = 0
KCH1 261305Z 15007KT 20/19 A3003 RMK A01 T02040186  RH  089%=      5-min Rain = 0
KCH1 261306Z 16005KT 21/19 A3003 RMK A01 T02050187  RH  089%=      5-min Rain = 0
KCH1 261307Z 16006KT 21/19 A3003 RMK A01 T02050187  RH  090%=      5-min Rain = 0
KCH1 261308Z 16008KT 21/19 A3003 RMK A01 T02050187  RH  090%=      5-min Rain = 0
KCH1 261309Z 15009KT 21/19 A3003 RMK A01 T02050186  RH  089%=      5-min Rain = 0
KCH1 261310Z 15008KT 21/19 A3003 RMK A01 T02050186  RH  089%=      5-min Rain = 0
KCH1 261311Z 16007KT 21/19 A3003 RMK A01 T02050187  RH  089%=      5-min Rain = 0
KCH1 261312Z 16007KT 21/19 A3003 RMK A01 T02050187  RH  089%=      5-min Rain = 0
KCH1 261313Z 15007KT 21/19 A3003 RMK A01 T02050187  RH  089%=      5-min Rain = 0
KCH1 261314Z 16009KT 21/19 A3003 RMK A01 T02050186  RH  089%=      5-min Rain = 0
KCH1 261315Z 15007KT 21/19 A3004 RMK A01 T02060187  RH  089%=      5-min Rain = 0
KCH1 261316Z 15007KT 21/19 A3004 RMK A01 T02060187  RH  089%=      5-min Rain = 0
KCH1 261317Z 16009KT 21/19 A3004 RMK A01 T02060186  RH  088%=      5-min Rain = 0
KCH1 261318Z 15008KT 21/19 A3004 RMK A01 T02060186  RH  088%=      5-min Rain = 0
KCH1 261319Z 15007KT 21/19 A3004 RMK A01 T02060187  RH  089%=      5-min Rain = 0
KCH1 261320Z 15006KT 21/19 A3004 RMK A01 T02070187  RH  089%=      5-min Rain = 0
KCH1 261321Z 17006KT 21/19 A3004 RMK A01 T02070187  RH  089%=      5-min Rain = 0
KCH1 261322Z 15010KT 21/19 A3004 RMK A01 T02070187  RH  088%=      5-min Rain = 0
KCH1 261323Z 15007KT 21/19 A3004 RMK A01 T02070186  RH  088%=      5-min Rain = 0
KCH1 261324Z 17008KT 21/19 A3004 RMK A01 T02070186  RH  088%=      5-min Rain = 0
KCH1 261325Z 16008KT 21/19 A3004 RMK A01 T02070186  RH  088%=      5-min Rain = 0
KCH1 261326Z 15008KT 21/19 A3004 RMK A01 T02070186  RH  087%=      5-min Rain = 0
KCH1 261327Z 15007KT 21/19 A3004 RMK A01 T02070186  RH  088%=      5-min Rain = 0
KCH1 261328Z 15008KT 21/19 A3004 RMK A01 T02080187  RH  088%=      5-min Rain = 0
KCH1 261329Z 15007KT 21/19 A3004 RMK A01 T02080187  RH  088%=      5-min Rain = 0
KCH1 261330Z 16008KT 21/19 A3004 RMK A01 T02080187  RH  088%=      5-min Rain = 0
KCH1 261331Z 16010KT 21/19 A3004 RMK A01 T02080186  RH  087%=      5-min Rain = 0
KCH1 261332Z 16009KT 21/19 A3004 RMK A01 T02080185  RH  087%=      5-min Rain = 0
KCH1 261333Z 15008KT 21/19 A3004 RMK A01 T02080186  RH  087%=      5-min Rain = 0
KCH1 261334Z 15007KT 21/19 A3004 RMK A01 T02090187  RH  087%=      5-min Rain = 0
KCH1 261335Z 16007KT 21/19 A3004 RMK A01 T02090187  RH  087%=      5-min Rain = 0
KCH1 261336Z 15006KT 21/19 A3004 RMK A01 T02090187  RH  088%=      5-min Rain = 0
KCH1 261337Z 15008KT 21/19 A3004 RMK A01 T02090187  RH  088%=      5-min Rain = 0
KCH1 261338Z 15007KT 21/19 A3005 RMK A01 T02090187  RH  087%=      5-min Rain = 0
KCH1 261339Z 16008KT 21/19 A3005 RMK A01 T02090187  RH  087%=      5-min Rain = 0
KCH1 261340Z 15010KT 21/19 A3005 RMK A01 T02090186  RH  086%=      5-min Rain = 0
KCH1 261341Z 16009KT 21/19 A3005 RMK A01 T02090186  RH  086%=      5-min Rain = 0
KCH1 261342Z 16009KT 21/19 A3005 RMK A01 T02090186  RH  086%=      5-min Rain = 0
KCH1 261343Z 15009KT 21/19 A3005 RMK A01 T02090186  RH  087%=      5-min Rain = 0
KCH1 261344Z 16008KT 21/19 A3005 RMK A01 T02090187  RH  087%=      5-min Rain = 0
KCH1 261345Z 15009KT 21/19 A3005 RMK A01 T02090187  RH  087%=      5-min Rain = 0
KCH1 261346Z 16007KT 21/19 A3005 RMK A01 T02090187  RH  087%=      5-min Rain = 0
KCH1 261347Z 16005KT 21/19 A3005 RMK A01 T02090187  RH  087%=      5-min Rain = 0
KCH1 261348Z 16006KT 21/19 A3005 RMK A01 T02090187  RH  087%=      5-min Rain = 0
KCH1 261349Z 17007KT 21/19 A3005 RMK A01 T02090188  RH  087%=      5-min Rain = 0
KCH1 261350Z 17005KT 21/19 A3005 RMK A01 T02090187  RH  087%=      5-min Rain = 0
KCH1 261351Z 16006KT 21/19 A3005 RMK A01 T02090188  RH  088%=      5-min Rain = 0
KCH1 261352Z 16008KT 21/19 A3005 RMK A01 T02100188  RH  087%=      5-min Rain = 0
KCH1 261353Z 17008KT 21/19 A3005 RMK A01 T02100187  RH  087%=      5-min Rain = 0
KCH1 261354Z 16006KT 21/19 A3005 RMK A01 T02100187  RH  087%=      5-min Rain = 0
KCH1 261355Z 16007KT 21/19 A3005 RMK A01 T02100187  RH  087%=      5-min Rain = 0
KCH1 261356Z 15007KT 21/19 A3005 RMK A01 T02100188  RH  087%=      5-min Rain = 0
KCH1 261357Z 16005KT 21/19 A3005 RMK A01 T02100189  RH  087%=      5-min Rain = 0
KCH1 261358Z 15006KT 21/19 A3005 RMK A01 T02110188  RH  087%=      5-min Rain = 0
KCH1 261359Z 15005KT 21/19 A3005 RMK A01 T02110189  RH  087%=      5-min Rain = 0
KCH1 261400Z 15005KT 21/19 A3005 RMK A01 T02110190  RH  088%=      5-min Rain = 0
KCH1 261401Z 15006KT 21/19 A3005 RMK A01 T02120191  RH  088%=      5-min Rain = 0
KCH1 261402Z 16007KT 21/19 A3005 RMK A01 T02120190  RH  087%=      5-min Rain = 0
KCH1 261403Z 15008KT 21/19 A3005 RMK A01 T02120188  RH  086%=      5-min Rain = 0
KCH1 261404Z 15008KT 21/19 A3005 RMK A01 T02120188  RH  086%=      5-min Rain = 0
KCH1 261405Z 15009KT 21/19 A3005 RMK A01 T02120188  RH  086%=      5-min Rain = 0
KCH1 261406Z 16007KT 21/19 A3005 RMK A01 T02130189  RH  086%=      5-min Rain = 0
KCH1 261407Z 15006KT 21/19 A3005 RMK A01 T02130190  RH  087%=      5-min Rain = 0
KCH1 261408Z 15007KT 21/19 A3005 RMK A01 T02130189  RH  086%=      5-min Rain = 0
KCH1 261409Z 15006G12KT 21/19 A3005 RMK A01 T02130189  RH  086%=      5-min Rain = 0
KCH1 261410Z 16009KT 21/19 A3005 RMK A01 T02130188  RH  086%=      5-min Rain = 0
KCH1 261411Z 15009KT 21/19 A3005 RMK A01 T02130188  RH  085%=      5-min Rain = 0
KCH1 261412Z 16010KT 21/19 A3005 RMK A01 T02130188  RH  085%=      5-min Rain = 0
KCH1 261413Z 17010KT 21/19 A3005 RMK A01 T02130187  RH  085%=      5-min Rain = 0
KCH1 261414Z 16008KT 21/19 A3005 RMK A01 T02130187  RH  085%=      5-min Rain = 0
KCH1 261415Z 15007KT 21/19 A3005 RMK A01 T02130189  RH  086%=      5-min Rain = 0
KCH1 261416Z 15006KT 21/19 A3005 RMK A01 T02140190  RH  086%=      5-min Rain = 0
KCH1 261417Z 15009KT 22/19 A3005 RMK A01 T02150191  RH  086%=      5-min Rain = 0
KCH1 261418Z 15009KT 22/19 A3005 RMK A01 T02160189  RH  084%=      5-min Rain = 0
KCH1 261419Z 16009KT 22/19 A3005 RMK A01 T02160189  RH  084%=      5-min Rain = 0
KCH1 261420Z 16010KT 22/19 A3005 RMK A01 T02160188  RH  084%=      5-min Rain = 0
KCH1 261421Z 14008KT 22/19 A3005 RMK A01 T02160188  RH  084%=      5-min Rain = 0
KCH1 261422Z 14006KT 22/19 A3005 RMK A01 T02160190  RH  085%=      5-min Rain = 0
KCH1 261423Z 15006KT 22/19 A3005 RMK A01 T02160191  RH  085%=      5-min Rain = 0
KCH1 261424Z 14008KT 22/19 A3005 RMK A01 T02160190  RH  085%=      5-min Rain = 0
KCH1 261425Z 14009KT 22/19 A3005 RMK A01 T02160189  RH  085%=      5-min Rain = 0
KCH1 261426Z 16009KT 22/19 A3005 RMK A01 T02160189  RH  084%=      5-min Rain = 0
KCH1 261427Z 15011KT 22/19 A3005 RMK A01 T02160189  RH  084%=      5-min Rain = 0
KCH1 261428Z 15010KT 22/19 A3005 RMK A01 T02160188  RH  084%=      5-min Rain = 0
KCH1 261429Z 16008KT 22/19 A3005 RMK A01 T02160189  RH  085%=      5-min Rain = 0
KCH1 261430Z 14008KT 22/19 A3005 RMK A01 T02160189  RH  085%=      5-min Rain = 0
KCH1 261431Z 15010KT 22/19 A3005 RMK A01 T02160189  RH  085%=      5-min Rain = 0
KCH1 261432Z 15009KT 22/19 A3005 RMK A01 T02160189  RH  085%=      5-min Rain = 0
KCH1 261433Z 16009KT 22/19 A3005 RMK A01 T02160189  RH  084%=      5-min Rain = 0
KCH1 261434Z 15009KT 22/19 A3005 RMK A01 T02160189  RH  084%=      5-min Rain = 0
KCH1 261435Z 15008KT 22/19 A3005 RMK A01 T02160189  RH  085%=      5-min Rain = 0
KCH1 261436Z 15011KT 22/19 A3005 RMK A01 T02170189  RH  084%=      5-min Rain = 0
KCH1 261437Z 15010KT 22/19 A3005 RMK A01 T02170189  RH  084%=      5-min Rain = 0
KCH1 261438Z 15010KT 22/19 A3005 RMK A01 T02170189  RH  084%=      5-min Rain = 0
KCH1 261439Z 16008KT 22/19 A3005 RMK A01 T02180190  RH  084%=      5-min Rain = 0
KCH1 261440Z 15009KT 22/19 A3005 RMK A01 T02180190  RH  084%=      5-min Rain = 0
KCH1 261441Z 15009KT 22/19 A3005 RMK A01 T02190189  RH  083%=      5-min Rain = 0
KCH1 261442Z 15007KT 22/19 A3005 RMK A01 T02200191  RH  084%=      5-min Rain = 0
KCH1 261443Z 16010KT 22/19 A3005 RMK A01 T02210191  RH  083%=      5-min Rain = 0
KCH1 261444Z 15012KT 22/19 A3005 RMK A01 T02210189  RH  082%=      5-min Rain = 0
KCH1 261445Z 16011KT 22/19 A3005 RMK A01 T02220189  RH  082%=      5-min Rain = 0
KCH1 261446Z 16010KT 22/19 A3005 RMK A01 T02220190  RH  082%=      5-min Rain = 0
KCH1 261447Z 16009KT 22/19 A3005 RMK A01 T02230190  RH  082%=      5-min Rain = 0
KCH1 261448Z 16008KT 22/19 A3005 RMK A01 T02240192  RH  082%=      5-min Rain = 0
KCH1 261449Z 17009KT 23/19 A3005 RMK A01 T02260192  RH  081%=      5-min Rain = 0
KCH1 261450Z 16011KT 23/19 A3005 RMK A01 T02280193  RH  081%=      5-min Rain = 0
KCH1 261451Z 16009KT 23/19 A3005 RMK A01 T02280190  RH  079%=      5-min Rain = 0
KCH1 261452Z 16008KT 23/19 A3005 RMK A01 T02270191  RH  080%=      5-min Rain = 0
KCH1 261453Z 17010KT 23/19 A3005 RMK A01 T02280192  RH  080%=      5-min Rain = 0
KCH1 261454Z 17012KT 23/19 A3005 RMK A01 T02280189  RH  079%=      5-min Rain = 0
KCH1 261455Z 16009KT 23/19 A3005 RMK A01 T02280190  RH  079%=      5-min Rain = 0
KCH1 261456Z 16013KT 23/19 A3005 RMK A01 T02280191  RH  079%=      5-min Rain = 0
KCH1 261457Z 17014G19KT 23/19 A3005 RMK A01 T02280189  RH  079%=      5-min Rain = 0
KCH1 261458Z 16010KT 23/19 A3005 RMK A01 T02280190  RH  079%=      5-min Rain = 0
KCH1 261459Z 15010KT 23/19 A3005 RMK A01 T02280189  RH  079%=      5-min Rain = 0
KCH1 261500Z 18008KT 23/19 A3005 RMK A01 T02270191  RH  080%=      5-min Rain = 0
KCH1 261501Z 18011KT 23/19 A3005 RMK A01 T02280192  RH  080%=      5-min Rain = 0
KCH1 261502Z 17007G12KT 23/19 A3005 RMK A01 T02290191  RH  079%=      5-min Rain = 0
KCH1 261503Z 16010KT 23/19 A3005 RMK A01 T02290193  RH  080%=      5-min Rain = 0
KCH1 261504Z 16010G15KT 23/19 A3005 RMK A01 T02300191  RH  079%=      5-min Rain = 0
KCH1 261505Z 16013KT 23/19 A3005 RMK A01 T02290190  RH  079%=      5-min Rain = 0
KCH1 261506Z 16013KT 23/19 A3005 RMK A01 T02290190  RH  079%=      5-min Rain = 0
KCH1 261507Z 17011KT 23/19 A3005 RMK A01 T02280190  RH  079%=      5-min Rain = 0
KCH1 261508Z 15011KT 23/19 A3005 RMK A01 T02280191  RH  080%=      5-min Rain = 0
KCH1 261509Z 15013KT 23/19 A3005 RMK A01 T02280190  RH  079%=      5-min Rain = 0
KCH1 261510Z 15014KT 23/19 A3005 RMK A01 T02280191  RH  079%=      5-min Rain = 0
KCH1 261511Z 17011KT 23/19 A3005 RMK A01 T02280189  RH  079%=      5-min Rain = 0
KCH1 261512Z 15009KT 23/19 A3005 RMK A01 T02270191  RH  080%=      5-min Rain = 0
KCH1 261513Z 16010KT 23/19 A3005 RMK A01 T02280192  RH  081%=      5-min Rain = 0
KCH1 261514Z 16011KT 23/19 A3005 RMK A01 T02280192  RH  080%=      5-min Rain = 0
KCH1 261515Z 16010KT 23/19 A3005 RMK A01 T02280191  RH  079%=      5-min Rain = 0
KCH1 261516Z 16010KT 23/19 A3005 RMK A01 T02280191  RH  080%=      5-min Rain = 0
KCH1 261517Z 16008KT 23/19 A3005 RMK A01 T02270192  RH  080%=      5-min Rain = 0
KCH1 261518Z 16006KT 23/19 A3005 RMK A01 T02270193  RH  081%=      5-min Rain = 0
KCH1 261519Z 16009KT 23/20 A3005 RMK A01 T02290195  RH  082%=      5-min Rain = 0
KCH1 261520Z 16012KT 23/19 A3005 RMK A01 T02290191  RH  079%=      5-min Rain = 0
KCH1 261521Z 16011KT 23/19 A3005 RMK A01 T02280191  RH  080%=      5-min Rain = 0
KCH1 261522Z 15011KT 23/19 A3005 RMK A01 T02270191  RH  080%=      5-min Rain = 0
KCH1 261523Z 15012KT 23/19 A3004 RMK A01 T02270190  RH  080%=      5-min Rain = 0
KCH1 261524Z 16011KT 23/19 A3005 RMK A01 T02270191  RH  080%=      5-min Rain = 0
KCH1 261525Z 16012KT 23/19 A3004 RMK A01 T02260190  RH  080%=      5-min Rain = 0
KCH1 261526Z 16011G16KT 23/19 A3004 RMK A01 T02250190  RH  080%=      5-min Rain = 0
KCH1 261527Z 17013KT 23/19 A3004 RMK A01 T02250189  RH  080%=      5-min Rain = 0
KCH1 261528Z 17009KT 22/19 A3004 RMK A01 T02240189  RH  080%=      5-min Rain = 0
KCH1 261529Z 16011KT 22/19 A3004 RMK A01 T02240190  RH  081%=      5-min Rain = 0
KCH1 261530Z 16011KT 22/19 A3004 RMK A01 T02240190  RH  081%=      5-min Rain = 0
KCH1 261531Z 16013KT 22/19 A3004 RMK A01 T02240189  RH  081%=      5-min Rain = 0
KCH1 261532Z 15011KT 22/19 A3004 RMK A01 T02240189  RH  081%=      5-min Rain = 0
KCH1 261533Z 16008KT 22/19 A3004 RMK A01 T02240191  RH  082%=      5-min Rain = 0
KCH1 261534Z 16011KT 22/19 A3004 RMK A01 T02240190  RH  081%=      5-min Rain = 0
KCH1 261535Z 16009KT 23/19 A3004 RMK A01 T02250190  RH  081%=      5-min Rain = 0
KCH1 261536Z 17009KT 23/19 A3004 RMK A01 T02250191  RH  081%=      5-min Rain = 0
KCH1 261537Z 17011KT 23/19 A3004 RMK A01 T02250190  RH  081%=      5-min Rain = 0
KCH1 261538Z 16010KT 23/19 A3004 RMK A01 T02250191  RH  081%=      5-min Rain = 0
KCH1 261539Z 17009KT 23/19 A3004 RMK A01 T02250191  RH  081%=      5-min Rain = 0
KCH1 261540Z 16010KT 23/19 A3004 RMK A01 T02250192  RH  082%=      5-min Rain = 0
KCH1 261541Z 16011G16KT 23/19 A3004 RMK A01 T02250191  RH  081%=      5-min Rain = 0
KCH1 261542Z 16013KT 23/19 A3004 RMK A01 T02250191  RH  081%=      5-min Rain = 0
KCH1 261543Z 16010KT 23/19 A3004 RMK A01 T02250189  RH  080%=      5-min Rain = 0
KCH1 261544Z 15011KT 23/19 A3004 RMK A01 T02250190  RH  080%=      5-min Rain = 0
KCH1 261545Z 16011KT 23/19 A3004 RMK A01 T02250191  RH  081%=      5-min Rain = 0
KCH1 261546Z 15011KT 23/19 A3004 RMK A01 T02250190  RH  081%=      5-min Rain = 0
KCH1 261547Z 15011KT 23/19 A3004 RMK A01 T02250191  RH  081%=      5-min Rain = 0
KCH1 261548Z 16009KT 23/19 A3004 RMK A01 T02260193  RH  081%=      5-min Rain = 0
KCH1 261549Z 16013KT 23/19 A3004 RMK A01 T02260191  RH  081%=      5-min Rain = 0
KCH1 261550Z 16009KT 23/19 A3004 RMK A01 T02260190  RH  080%=      5-min Rain = 0
KCH1 261551Z 16007KT 23/19 A3004 RMK A01 T02270193  RH  081%=      5-min Rain = 0
KCH1 261552Z 15009KT 23/19 A3004 RMK A01 T02280194  RH  081%=      5-min Rain = 0
KCH1 261553Z 15010KT 23/19 A3004 RMK A01 T02280193  RH  080%=      5-min Rain = 0
KCH1 261554Z 15008KT 23/19 A3004 RMK A01 T02290193  RH  080%=      5-min Rain = 0
KCH1 261555Z 15010KT 23/19 A3004 RMK A01 T02300194  RH  080%=      5-min Rain = 0
KCH1 261556Z 18007KT 23/19 A3004 RMK A01 T02300194  RH  080%=      5-min Rain = 0
KCH1 261557Z 17011KT 23/19 A3004 RMK A01 T02310194  RH  080%=      5-min Rain = 0
KCH1 261558Z 16012KT 23/19 A3004 RMK A01 T02310192  RH  079%=      5-min Rain = 0
KCH1 261559Z 16011KT 23/19 A3004 RMK A01 T02310193  RH  079%=      5-min Rain = 0
KCH1 261600Z 17011KT 23/19 A3004 RMK A01 T02310191  RH  078%=      5-min Rain = 0
KCH1 261601Z 16010KT 23/19 A3004 RMK A01 T02310193  RH  079%=      5-min Rain = 0
KCH1 261602Z 16010KT 23/19 A3004 RMK A01 T02320193  RH  079%=      5-min Rain = 0
KCH1 261603Z 15007KT 23/20 A3004 RMK A01 T02320195  RH  079%=      5-min Rain = 0
KCH1 261604Z 15009KT 23/20 A3004 RMK A01 T02330197  RH  080%=      5-min Rain = 0
KCH1 261605Z 15011KT 23/20 A3004 RMK A01 T02340195  RH  079%=      5-min Rain = 0
KCH1 261606Z 16012KT 24/20 A3004 RMK A01 T02350195  RH  078%=      5-min Rain = 0
KCH1 261607Z 16013KT 24/19 A3004 RMK A01 T02360194  RH  077%=      5-min Rain = 0
KCH1 261608Z 15010KT 24/19 A3004 RMK A01 T02360194  RH  077%=      5-min Rain = 0
KCH1 261609Z 15014KT 24/19 A3004 RMK A01 T02370194  RH  077%=      5-min Rain = 0
KCH1 261610Z 16012KT 24/19 A3004 RMK A01 T02380194  RH  077%=      5-min Rain = 0
KCH1 261611Z 15012KT 24/20 A3003 RMK A01 T02390195  RH  076%=      5-min Rain = 0
KCH1 261612Z 16011KT 24/20 A3003 RMK A01 T02410197  RH  076%=      5-min Rain = 0
KCH1 261613Z 15012KT 24/20 A3003 RMK A01 T02420196  RH  075%=      5-min Rain = 0
KCH1 261614Z 16013KT 24/20 A3003 RMK A01 T02430195  RH  075%=      5-min Rain = 0
KCH1 261615Z 15012G17KT 24/20 A3003 RMK A01 T02430195  RH  075%=      5-min Rain = 0
KCH1 261616Z 15011KT 24/20 A3003 RMK A01 T02430196  RH  075%=      5-min Rain = 0
KCH1 261617Z 16009KT 24/20 A3003 RMK A01 T02430197  RH  075%=      5-min Rain = 0
KCH1 261618Z 15011KT 24/20 A3003 RMK A01 T02430197  RH  076%=      5-min Rain = 0
KCH1 261619Z 15010KT 24/20 A3003 RMK A01 T02440197  RH  075%=      5-min Rain = 0
KCH1 261620Z 15010KT 24/20 A3003 RMK A01 T02440198  RH  075%=      5-min Rain = 0
KCH1 261621Z 17009G14KT 24/20 A3003 RMK A01 T02440198  RH  076%=      5-min Rain = 0
KCH1 261622Z 16013G18KT 24/20 A3003 RMK A01 T02440195  RH  074%=      5-min Rain = 0
KCH1 261623Z 16012G18KT 24/20 A3003 RMK A01 T02430195  RH  074%=      5-min Rain = 0
KCH1 261624Z 16013G18KT 24/19 A3003 RMK A01 T02420194  RH  075%=      5-min Rain = 0
KCH1 261625Z 16012KT 24/20 A3003 RMK A01 T02410195  RH  075%=      5-min Rain = 0
KCH1 261626Z 15014G20KT 24/20 A3003 RMK A01 T02420195  RH  075%=      5-min Rain = 0
KCH1 261627Z 14016KT 24/19 A3003 RMK A01 T02410193  RH  075%=      5-min Rain = 0
KCH1 261628Z 15014KT 24/19 A3003 RMK A01 T02420193  RH  074%=      5-min Rain = 0
KCH1 261629Z 15016G21KT 24/20 A3003 RMK A01 T02420195  RH  075%=      5-min Rain = 0
KCH1 261630Z 16013G19KT 24/20 A3003 RMK A01 T02440197  RH  075%=      5-min Rain = 0
KCH1 261631Z 16017G22KT 25/19 A3003 RMK A01 T02450193  RH  073%=      5-min Rain = 0
KCH1 261632Z 15015KT 25/19 A3002 RMK A01 T02450192  RH  073%=      5-min Rain = 0
KCH1 261633Z 16011KT 25/20 A3003 RMK A01 T02450197  RH  075%=      5-min Rain = 0
KCH1 261634Z 17010G15KT 25/20 A3003 RMK A01 T02470199  RH  075%=      5-min Rain = 0
KCH1 261635Z 15016KT 25/20 A3003 RMK A01 T02480197  RH  073%=      5-min Rain = 0
KCH1 261636Z 16014KT 25/20 A3003 RMK A01 T02470196  RH  073%=      5-min Rain = 0
KCH1 261637Z 16014KT 25/20 A3002 RMK A01 T02470197  RH  074%=      5-min Rain = 0
KCH1 261638Z 16012KT 25/20 A3002 RMK A01 T02450195  RH  074%=      5-min Rain = 0
KCH1 261639Z 14011KT 25/20 A3002 RMK A01 T02450199  RH  076%=      5-min Rain = 0
KCH1 261640Z 14013G20KT 25/20 A3002 RMK A01 T02450198  RH  075%=      5-min Rain = 0
KCH1 261641Z 15016G21KT 25/20 A3002 RMK A01 T02450195  RH  074%=      5-min Rain = 0
KCH1 261642Z 15015KT 25/20 A3002 RMK A01 T02450196  RH  074%=      5-min Rain = 0
KCH1 261643Z 14015KT 24/20 A3003 RMK A01 T02440195  RH  074%=      5-min Rain = 0
KCH1 261644Z 15014KT 24/20 A3002 RMK A01 T02440196  RH  075%=      5-min Rain = 0
KCH1 261645Z 17014KT 24/19 A3002 RMK A01 T02430194  RH  074%=      5-min Rain = 0
KCH1 261646Z 15014KT 24/20 A3002 RMK A01 T02430195  RH  074%=      5-min Rain = 0
KCH1 261647Z 15015KT 24/19 A3002 RMK A01 T02430193  RH  074%=      5-min Rain = 0
KCH1 261648Z 16015G20KT 24/19 A3002 RMK A01 T02430194  RH  074%=      5-min Rain = 0
KCH1 261649Z 17016KT 24/19 A3002 RMK A01 T02420193  RH  074%=      5-min Rain = 0
KCH1 261650Z 17015G20KT 24/19 A3002 RMK A01 T02420193  RH  074%=      5-min Rain = 0
KCH1 261651Z 16012KT 24/20 A3002 RMK A01 T02420195  RH  075%=      5-min Rain = 0
KCH1 261652Z 16011KT 24/20 A3003 RMK A01 T02420196  RH  075%=      5-min Rain = 0
KCH1 261653Z 15009KT 24/20 A3003 RMK A01 T02420198  RH  076%=      5-min Rain = 0
KCH1 261654Z 15014KT 24/20 A3003 RMK A01 T02430196  RH  075%=      5-min Rain = 0
KCH1 261655Z 16015G20KT 24/20 A3003 RMK A01 T02430196  RH  075%=      5-min Rain = 0
KCH1 261656Z 16014KT 24/20 A3003 RMK A01 T02430195  RH  075%=      5-min Rain = 0
KCH1 261657Z 16012G18KT 24/20 A3003 RMK A01 T02430196  RH  075%=      5-min Rain = 0
KCH1 261658Z 16016KT 24/20 A3003 RMK A01 T02430196  RH  075%=      5-min Rain = 0
KCH1 261659Z 15011G16KT 24/20 A3003 RMK A01 T02430196  RH  075%=      5-min Rain = 0
KCH1 261700Z 16013KT 24/20 A3003 RMK A01 T02440196  RH  075%=      5-min Rain = 0
KCH1 261701Z 16015G21KT 24/20 A3002 RMK A01 T02440196  RH  075%=      5-min Rain = 0
KCH1 261702Z 17015KT 24/20 A3002 RMK A01 T02440195  RH  074%=      5-min Rain = 0
KCH1 261703Z 17014KT 24/19 A3002 RMK A01 T02430194  RH  074%=      5-min Rain = 0
KCH1 261704Z 18013G18KT 24/20 A3002 RMK A01 T02430195  RH  074%=      5-min Rain = 0
KCH1 261705Z 18010G15KT 24/20 A3002 RMK A01 T02430196  RH  075%=      5-min Rain = 0
KCH1 261706Z 16012KT 24/20 A3002 RMK A01 T02430196  RH  075%=      5-min Rain = 0
KCH1 261707Z 16010KT 24/20 A3002 RMK A01 T02430198  RH  075%=      5-min Rain = 0
KCH1 261708Z 16013KT 24/20 A3002 RMK A01 T02440196  RH  075%=      5-min Rain = 0
KCH1 261709Z 16015G20KT 24/20 A3002 RMK A01 T02440196  RH  075%=      5-min Rain = 0
KCH1 261710Z 16012KT 24/20 A3002 RMK A01 T02440196  RH  074%=      5-min Rain = 0
KCH1 261711Z 16015G21KT 24/20 A3002 RMK A01 T02440196  RH  074%=      5-min Rain = 0
KCH1 261712Z 16015G21KT 24/20 A3002 RMK A01 T02440195  RH  074%=      5-min Rain = 0
KCH1 261713Z 16015G20KT 24/20 A3002 RMK A01 T02440196  RH  075%=      5-min Rain = 0
KCH1 261714Z 17014KT 24/20 A3002 RMK A01 T02440196  RH  074%=      5-min Rain = 0
KCH1 261715Z 16013KT 24/20 A3002 RMK A01 T02440196  RH  075%=      5-min Rain = 0
KCH1 261716Z 18013G18KT 24/20 A3002 RMK A01 T02440196  RH  075%=      5-min Rain = 0
KCH1 261717Z 17015KT 24/20 A3002 RMK A01 T02430195  RH  074%=      5-min Rain = 0
KCH1 261718Z 16012G17KT 24/20 A3002 RMK A01 T02430196  RH  075%=      5-min Rain = 0
KCH1 261719Z 17009G15KT 24/20 A3003 RMK A01 T02420198  RH  076%=      5-min Rain = 0
KCH1 261720Z 17011G18KT 24/20 A3003 RMK A01 T02420197  RH  076%=      5-min Rain = 0
KCH1 261721Z 17014KT 24/20 A3003 RMK A01 T02420196  RH  075%=      5-min Rain = 0
KCH1 261722Z 16010KT 24/20 A3003 RMK A01 T02420196  RH  076%=      5-min Rain = 0
KCH1 261723Z 16013G18KT 24/20 A3003 RMK A01 T02410196  RH  076%=      5-min Rain = 0
KCH1 261724Z 17014KT 24/20 A3003 RMK A01 T02410196  RH  076%=      5-min Rain = 0
KCH1 261725Z 17013KT 24/20 A3003 RMK A01 T02410196  RH  076%=      5-min Rain = 0
KCH1 261726Z 16011KT 24/20 A3003 RMK A01 T02400197  RH  077%=      5-min Rain = 0
KCH1 261727Z 17010KT 24/20 A3003 RMK A01 T02400197  RH  077%=      5-min Rain = 0
KCH1 261728Z 17011G17KT 24/20 A3003 RMK A01 T02410197  RH  076%=      5-min Rain = 0
KCH1 261729Z 16011KT 24/20 A3003 RMK A01 T02410197  RH  076%=      5-min Rain = 0
KCH1 261730Z 18010G15KT 24/20 A3003 RMK A01 T02400198  RH  077%=      5-min Rain = 0
KCH1 261731Z 16013G18KT 24/20 A3003 RMK A01 T02410198  RH  077%=      5-min Rain = 0
KCH1 261732Z 17012KT 24/20 A3003 RMK A01 T02410197  RH  077%=      5-min Rain = 0
KCH1 261733Z 17018KT 24/20 A3003 RMK A01 T02410197  RH  076%=      5-min Rain = 0
KCH1 261734Z 17015G21KT 24/20 A3003 RMK A01 T02410196  RH  076%=      5-min Rain = 0
KCH1 261735Z 17017KT 24/20 A3003 RMK A01 T02410196  RH  076%=      5-min Rain = 0
KCH1 261736Z 17015KT 24/20 A3003 RMK A01 T02420197  RH  076%=      5-min Rain = 0
KCH1 261737Z 17014KT 24/20 A3003 RMK A01 T02420197  RH  076%=      5-min Rain = 0
KCH1 261738Z 17012KT 24/20 A3003 RMK A01 T02420198  RH  076%=      5-min Rain = 0
KCH1 261739Z 16012KT 24/20 A3003 RMK A01 T02430198  RH  076%=      5-min Rain = 0
KCH1 261740Z 16009KT 24/20 A3003 RMK A01 T02430199  RH  077%=      5-min Rain = 0
KCH1 261741Z 17007KT 24/20 A3003 RMK A01 T02430201  RH  077%=      5-min Rain = 0
KCH1 261742Z 17009KT 24/20 A3003 RMK A01 T02430202  RH  077%=      5-min Rain = 0
KCH1 261743Z 17014G20KT 24/20 A3003 RMK A01 T02430200  RH  077%=      5-min Rain = 0
KCH1 261744Z 16014G20KT 24/20 A3003 RMK A01 T02440199  RH  076%=      5-min Rain = 0
KCH1 261745Z 17010KT 24/20 A3003 RMK A01 T02430200  RH  077%=      5-min Rain = 0
KCH1 261746Z 17013G19KT 24/20 A3003 RMK A01 T02420200  RH  077%=      5-min Rain = 0
KCH1 261747Z 17013G18KT 24/20 A3003 RMK A01 T02420199  RH  077%=      5-min Rain = 0
KCH1 261748Z 16016KT 24/20 A3003 RMK A01 T02420200  RH  077%=      5-min Rain = 0
KCH1 261749Z 17012KT 24/20 A3003 RMK A01 T02420199  RH  077%=      5-min Rain = 0
KCH1 261750Z 16013KT 24/20 A3003 RMK A01 T02410199  RH  077%=      5-min Rain = 0
KCH1 261751Z 17011KT 24/20 A3003 RMK A01 T02410199  RH  078%=      5-min Rain = 0
KCH1 261752Z 16013KT 24/20 A3003 RMK A01 T02410200  RH  078%=      5-min Rain = 0
KCH1 261753Z 17016G21KT 24/20 A3002 RMK A01 T02420199  RH  077%=      5-min Rain = 0
KCH1 261754Z 17014G19KT 24/20 A3002 RMK A01 T02410199  RH  077%=      5-min Rain = 0
KCH1 261755Z 17011KT 24/20 A3002 RMK A01 T02420200  RH  077%=      5-min Rain = 0
KCH1 261756Z 18012G17KT 24/20 A3002 RMK A01 T02420199  RH  077%=      5-min Rain = 0
KCH1 261757Z 17015G21KT 24/20 A3002 RMK A01 T02420199  RH  077%=      5-min Rain = 0
KCH1 261758Z 17012KT 24/20 A3003 RMK A01 T02420200  RH  077%=      5-min Rain = 0
KCH1 261759Z 17013KT 24/20 A3003 RMK A01 T02420199  RH  077%=      5-min Rain = 0
KCH1 261800Z 17014KT 24/20 A3002 RMK A01 T02420200  RH  077%=      5-min Rain = 0
KCH1 261801Z 18013G18KT 24/20 A3002 RMK A01 T02430200  RH  077%=      5-min Rain = 0
KCH1 261802Z 17013KT 24/20 A3002 RMK A01 T02440201  RH  077%=      5-min Rain = 0
KCH1 261803Z 17015KT 25/20 A3002 RMK A01 T02450201  RH  076%=      5-min Rain = 0
KCH1 261804Z 16014KT 25/20 A3002 RMK A01 T02460202  RH  076%=      5-min Rain = 0
KCH1 261805Z 16016KT 25/20 A3002 RMK A01 T02470201  RH  076%=      5-min Rain = 0
KCH1 261806Z 17017G22KT 25/20 A3002 RMK A01 T02470201  RH  076%=      5-min Rain = 0
KCH1 261807Z 17016KT 25/20 A3002 RMK A01 T02460200  RH  076%=      5-min Rain = 0
KCH1 261808Z 17014KT 25/20 A3002 RMK A01 T02460201  RH  076%=      5-min Rain = 0
KCH1 261809Z 17018KT 25/20 A3002 RMK A01 T02470201  RH  075%=      5-min Rain = 0
KCH1 261810Z 17015KT 25/20 A3002 RMK A01 T02480201  RH  075%=      5-min Rain = 0
KCH1 261811Z 18017G23KT 25/20 A3002 RMK A01 T02480201  RH  075%=      5-min Rain = 0
KCH1 261812Z 17012KT 25/20 A3002 RMK A01 T02490202  RH  075%=      5-min Rain = 0
KCH1 261813Z 17011G19KT 25/20 A3002 RMK A01 T02490204  RH  076%=      5-min Rain = 0
KCH1 261814Z 16009KT 25/21 A3002 RMK A01 T02510206  RH  076%=      5-min Rain = 0
KCH1 261815Z 16012KT 25/21 A3002 RMK A01 T02520206  RH  076%=      5-min Rain = 0
KCH1 261816Z 16013KT 25/21 A3002 RMK A01 T02530205  RH  075%=      5-min Rain = 0
KCH1 261817Z 17013KT 25/20 A3002 RMK A01 T02520204  RH  075%=      5-min Rain = 0
KCH1 261818Z 18012G17KT 25/21 A3002 RMK A01 T02520205  RH  075%=      5-min Rain = 0
KCH1 261819Z 17017G22KT 25/20 A3002 RMK A01 T02520204  RH  074%=      5-min Rain = 0
KCH1 261820Z 17012KT 25/20 A3002 RMK A01 T02520204  RH  075%=      5-min Rain = 0
KCH1 261821Z 16012KT 25/21 A3002 RMK A01 T02520205  RH  075%=      5-min Rain = 0
KCH1 261822Z 17010KT 25/21 A3002 RMK A01 T02520206  RH  076%=      5-min Rain = 0
KCH1 261823Z 17013KT 25/21 A3002 RMK A01 T02530207  RH  075%=      5-min Rain = 0
KCH1 261824Z 15012G17KT 25/21 A3002 RMK A01 T02540207  RH  075%=      5-min Rain = 0
KCH1 261825Z 17014KT 25/21 A3002 RMK A01 T02540207  RH  075%=      5-min Rain = 0
KCH1 261826Z 17012KT 25/21 A3002 RMK A01 T02540206  RH  075%=      5-min Rain = 0
KCH1 261827Z 18011KT 25/21 A3002 RMK A01 T02530207  RH  076%=      5-min Rain = 0
KCH1 261828Z 17010G16KT 25/21 A3002 RMK A01 T02520207  RH  076%=      5-min Rain = 0
KCH1 261829Z 15015KT 25/21 A3002 RMK A01 T02510206  RH  076%=      5-min Rain = 0
KCH1 261830Z 16011G16KT 25/21 A3002 RMK A01 T02500206  RH  077%=      5-min Rain = 0
KCH1 261831Z 16015G20KT 25/20 A3002 RMK A01 T02480204  RH  076%=      5-min Rain = 0
KCH1 261832Z 15015KT 25/20 A3002 RMK A01 T02470204  RH  077%=      5-min Rain = 0
KCH1 261833Z 16014KT 25/20 A3002 RMK A01 T02460203  RH  077%=      5-min Rain = 0
KCH1 261834Z 16016KT 25/20 A3002 RMK A01 T02460203  RH  077%=      5-min Rain = 0
KCH1 261835Z 16011KT 25/21 A3002 RMK A01 T02460205  RH  078%=      5-min Rain = 0
KCH1 261836Z 16011KT 25/21 A3002 RMK A01 T02460205  RH  078%=      5-min Rain = 0
KCH1 261837Z 18011KT 25/21 A3002 RMK A01 T02460205  RH  078%=      5-min Rain = 0
KCH1 261838Z 17013G20KT 25/21 A3002 RMK A01 T02450205  RH  078%=      5-min Rain = 0
KCH1 261839Z 16017KT 24/20 A3002 RMK A01 T02440203  RH  077%=      5-min Rain = 0
KCH1 261840Z 16015KT 24/20 A3002 RMK A01 T02440202  RH  078%=      5-min Rain = 0
KCH1 261841Z 16014KT 24/20 A3002 RMK A01 T02430202  RH  078%=      5-min Rain = 0
KCH1 261842Z 16016KT 24/20 A3002 RMK A01 T02430203  RH  078%=      5-min Rain = 0
KCH1 261843Z 16013G18KT 24/20 A3002 RMK A01 T02430202  RH  078%=      5-min Rain = 0
KCH1 261844Z 16015KT 24/20 A3002 RMK A01 T02430203  RH  078%=      5-min Rain = 0
KCH1 261845Z 16012KT 24/20 A3002 RMK A01 T02420203  RH  079%=      5-min Rain = 0
KCH1 261846Z 16011KT 24/20 A3002 RMK A01 T02420203  RH  079%=      5-min Rain = 0
KCH1 261847Z 17014KT 24/20 A3002 RMK A01 T02430203  RH  079%=      5-min Rain = 0
KCH1 261848Z 17015KT 24/20 A3002 RMK A01 T02430203  RH  078%=      5-min Rain = 0
KCH1 261849Z 16012KT 24/20 A3002 RMK A01 T02420203  RH  078%=      5-min Rain = 0
KCH1 261850Z 17007KT 24/21 A3002 RMK A01 T02420205  RH  079%=      5-min Rain = 0
KCH1 261851Z 16009KT 24/21 A3002 RMK A01 T02420206  RH  080%=      5-min Rain = 0
KCH1 261852Z 16013G21KT 24/21 A3002 RMK A01 T02430205  RH  080%=      5-min Rain = 0
KCH1 261853Z 16014G19KT 24/20 A3002 RMK A01 T02420204  RH  079%=      5-min Rain = 0
KCH1 261854Z 16016KT 24/20 A3002 RMK A01 T02420204  RH  079%=      5-min Rain = 0
KCH1 261855Z 17014KT 24/20 A3002 RMK A01 T02420204  RH  079%=      5-min Rain = 0
KCH1 261856Z 16012G17KT 24/20 A3002 RMK A01 T02420204  RH  079%=      5-min Rain = 0
KCH1 261857Z 16014KT 24/20 A3002 RMK A01 T02410203  RH  079%=      5-min Rain = 0
KCH1 261858Z 17014KT 24/20 A3002 RMK A01 T02410203  RH  080%=      5-min Rain = 0
KCH1 261859Z 17015G20KT 24/20 A3002 RMK A01 T02410203  RH  079%=      5-min Rain = 0
KCH1 261900Z 17012KT 24/20 A3002 RMK A01 T02410203  RH  079%=      5-min Rain = 0
KCH1 261901Z 17010KT 24/20 A3002 RMK A01 T02410204  RH  080%=      5-min Rain = 0
KCH1 261902Z 17008KT 24/21 A3002 RMK A01 T02410205  RH  080%=      5-min Rain = 0
KCH1 261903Z 16009KT 24/21 A3002 RMK A01 T02410205  RH  080%=      5-min Rain = 0
KCH1 261904Z 16009KT 24/21 A3002 RMK A01 T02410206  RH  081%=      5-min Rain = 0
KCH1 261905Z 17013KT 24/21 A3002 RMK A01 T02410205  RH  080%=      5-min Rain = 0
KCH1 261906Z 16011KT 24/21 A3002 RMK A01 T02420205  RH  080%=      5-min Rain = 0
KCH1 261907Z 16012KT 24/21 A3002 RMK A01 T02420205  RH  080%=      5-min Rain = 0
KCH1 261908Z 17015KT 24/20 A3002 RMK A01 T02420204  RH  079%=      5-min Rain = 0
KCH1 261909Z 16015KT 24/20 A3002 RMK A01 T02420203  RH  079%=      5-min Rain = 0
KCH1 261910Z 17014KT 24/20 A3002 RMK A01 T02420204  RH  079%=      5-min Rain = 0
KCH1 261911Z 17013KT 24/20 A3002 RMK A01 T02420203  RH  079%=      5-min Rain = 0
KCH1 261912Z 18011G16KT 24/21 A3002 RMK A01 T02420205  RH  079%=      5-min Rain = 0
KCH1 261913Z 18010KT 24/20 A3002 RMK A01 T02420204  RH  079%=      5-min Rain = 0
KCH1 261914Z 17009KT 24/21 A3002 RMK A01 T02420205  RH  080%=      5-min Rain = 0
KCH1 261915Z 16011KT 24/21 A3002 RMK A01 T02420205  RH  080%=      5-min Rain = 0
KCH1 261916Z 16010KT 24/21 A3002 RMK A01 T02420206  RH  080%=      5-min Rain = 0
KCH1 261917Z 16010KT 24/21 A3002 RMK A01 T02420205  RH  080%=      5-min Rain = 0
KCH1 261918Z 17010KT 24/21 A3002 RMK A01 T02430207  RH  080%=      5-min Rain = 0
KCH1 261919Z 17012KT 24/21 A3002 RMK A01 T02440206  RH  079%=      5-min Rain = 0
KCH1 261920Z 17010KT 25/21 A3002 RMK A01 T02460207  RH  079%=      5-min Rain = 0
KCH1 261921Z 16007KT 25/21 A3002 RMK A01 T02470209  RH  079%=      5-min Rain = 0
KCH1 261922Z 18007G12KT 25/21 A3002 RMK A01 T02480210  RH  079%=      5-min Rain = 0
KCH1 261923Z 17011G16KT 25/21 A3002 RMK A01 T02500208  RH  078%=      5-min Rain = 0
KCH1 261924Z 18015KT 25/21 A3001 RMK A01 T02500205  RH  076%=      5-min Rain = 0
KCH1 261925Z 17016KT 25/20 A3001 RMK A01 T02490204  RH  076%=      5-min Rain = 0
KCH1 261926Z 17015G21KT 25/20 A3001 RMK A01 T02480204  RH  076%=      5-min Rain = 0
KCH1 261927Z 18014KT 25/20 A3001 RMK A01 T02480203  RH  076%=      5-min Rain = 0
KCH1 261928Z 17015G20KT 25/20 A3001 RMK A01 T02480203  RH  076%=      5-min Rain = 0
KCH1 261929Z 17016G22KT 25/20 A3001 RMK A01 T02480204  RH  076%=      5-min Rain = 0
KCH1 261930Z 17012KT 25/20 A3001 RMK A01 T02500204  RH  076%=      5-min Rain = 0
KCH1 261931Z 17013G18KT 25/21 A3001 RMK A01 T02500205  RH  076%=      5-min Rain = 0
KCH1 261932Z 17012KT 25/21 A3001 RMK A01 T02520205  RH  075%=      5-min Rain = 0
KCH1 261933Z 17013KT 25/21 A3001 RMK A01 T02520205  RH  075%=      5-min Rain = 0
KCH1 261934Z 17014G21KT 25/20 A3001 RMK A01 T02520204  RH  075%=      5-min Rain = 0
KCH1 261935Z 16015KT 25/21 A3001 RMK A01 T02530206  RH  075%=      5-min Rain = 0
KCH1 261936Z 16013G18KT 25/21 A3001 RMK A01 T02540205  RH  075%=      5-min Rain = 0
KCH1 261937Z 16014G21KT 25/21 A3001 RMK A01 T02540207  RH  075%=      5-min Rain = 0
KCH1 261938Z 15015KT 26/21 A3001 RMK A01 T02550207  RH  075%=      5-min Rain = 0
KCH1 261939Z 16013KT 26/21 A3001 RMK A01 T02560208  RH  074%=      5-min Rain = 0
KCH1 261940Z 17012G17KT 26/21 A3001 RMK A01 T02570208  RH  074%=      5-min Rain = 0
KCH1 261941Z 17014KT 26/21 A3001 RMK A01 T02570208  RH  075%=      5-min Rain = 0
KCH1 261942Z 17015KT 26/21 A3001 RMK A01 T02560205  RH  073%=      5-min Rain = 0
KCH1 261943Z 17013KT 26/21 A3001 RMK A01 T02560206  RH  074%=      5-min Rain = 0
KCH1 261944Z 17012KT 26/21 A3001 RMK A01 T02560207  RH  074%=      5-min Rain = 0
KCH1 261945Z 17011KT 26/21 A3001 RMK A01 T02560208  RH  075%=      5-min Rain = 0
KCH1 261946Z 16011KT 26/21 A3001 RMK A01 T02560208  RH  074%=      5-min Rain = 0
KCH1 261947Z 15010G15KT 26/21 A3001 RMK A01 T02570212  RH  076%=      5-min Rain = 0
KCH1 261948Z 16009KT 26/21 A3001 RMK A01 T02590210  RH  075%=      5-min Rain = 0
KCH1 261949Z 15011KT 26/21 A3001 RMK A01 T02590211  RH  075%=      5-min Rain = 0
KCH1 261950Z 16011KT 26/21 A3001 RMK A01 T02600210  RH  074%=      5-min Rain = 0
KCH1 261951Z 15011KT 26/21 A3001 RMK A01 T02600208  RH  073%=      5-min Rain = 0
KCH1 261952Z 16011G17KT 26/21 A3001 RMK A01 T02600210  RH  074%=      5-min Rain = 0
KCH1 261953Z 17015G20KT 26/21 A30 RMK A01 T02600205  RH  072%=      5-min Rain = 0
KCH1 261954Z 16016KT 26/20 A30 RMK A01 T02590204  RH  072%=      5-min Rain = 0
KCH1 261955Z 16013KT 26/20 A30 RMK A01 T02580203  RH  072%=      5-min Rain = 0
KCH1 261956Z 17014KT 26/20 A30 RMK A01 T02580204  RH  072%=      5-min Rain = 0
KCH1 261957Z 16015KT 26/20 A30 RMK A01 T02580204  RH  072%=      5-min Rain = 0
KCH1 261958Z 17014KT 26/20 A30 RMK A01 T02580204  RH  072%=      5-min Rain = 0
KCH1 261959Z 17014KT 26/21 A30 RMK A01 T02590206  RH  072%=      5-min Rain = 0
KCH1 262000Z 17010KT 26/21 A30 RMK A01 T02600206  RH  072%=      5-min Rain = 0
KCH1 262001Z 17010KT 26/21 A30 RMK A01 T02620206  RH  072%=      5-min Rain = 0
KCH1 262002Z 18009G15KT 26/21 A30 RMK A01 T02630209  RH  072%=      5-min Rain = 0
KCH1 262003Z 17013KT 27/21 A30 RMK A01 T02650206  RH  070%=      5-min Rain = 0
KCH1 262004Z 17011KT 27/21 A30 RMK A01 T02650206  RH  070%=      5-min Rain = 0
KCH1 262005Z 17009KT 27/21 A30 RMK A01 T02650208  RH  071%=      5-min Rain = 0
KCH1 262006Z 16009G14KT 27/21 A30 RMK A01 T02660209  RH  071%=      5-min Rain = 0
KCH1 262007Z 18011KT 27/21 A30 RMK A01 T02680209  RH  070%=      5-min Rain = 0
KCH1 262008Z 17016KT 27/21 A30 RMK A01 T02690205  RH  068%=      5-min Rain = 0
KCH1 262009Z 17017KT 27/20 A30 RMK A01 T02700203  RH  067%=      5-min Rain = 0
KCH1 262010Z 17016KT 27/20 A30 RMK A01 T02700203  RH  067%=      5-min Rain = 0
KCH1 262011Z 18015KT 27/20 A30 RMK A01 T02700202  RH  066%=      5-min Rain = 0
KCH1 262012Z 16015G20KT 27/20 A30 RMK A01 T02690204  RH  067%=      5-min Rain = 0
KCH1 262013Z 16013G18KT 27/21 A30 RMK A01 T02700206  RH  068%=      5-min Rain = 0
KCH1 262014Z 16010G18KT 27/21 A30 RMK A01 T02690206  RH  068%=      5-min Rain = 0
KCH1 262015Z 15014KT 27/21 A30 RMK A01 T02690205  RH  068%=      5-min Rain = 0
KCH1 262016Z 16017KT 27/20 A30 RMK A01 T02690202  RH  066%=      5-min Rain = 0
KCH1 262017Z 16019KT 27/20 A2999 RMK A01 T02690199  RH  065%=      5-min Rain = 0
KCH1 262018Z 16018KT 27/20 A2999 RMK A01 T02690199  RH  066%=      5-min Rain = 0
KCH1 262019Z 16014G19KT 27/20 A30 RMK A01 T02690200  RH  066%=      5-min Rain = 0
KCH1 262020Z 15013G21KT 27/20 A30 RMK A01 T02710204  RH  067%=      5-min Rain = 0
KCH1 262021Z 16014KT 27/20 A30 RMK A01 T02720203  RH  066%=      5-min Rain = 0
KCH1 262022Z 17011G17KT 27/21 A30 RMK A01 T02720205  RH  066%=      5-min Rain = 0
KCH1 262023Z 17015G21KT 27/20 A30 RMK A01 T02730201  RH  065%=      5-min Rain = 0
KCH1 262024Z 17017G22KT 27/20 A2999 RMK A01 T02730198  RH  064%=      5-min Rain = 0
KCH1 262025Z 18016G22KT 27/20 A2999 RMK A01 T02730198  RH  064%=      5-min Rain = 0
KCH1 262026Z 17018KT 27/20 A2999 RMK A01 T02720198  RH  064%=      5-min Rain = 0
KCH1 262027Z 18015G20KT 27/20 A2999 RMK A01 T02720199  RH  064%=      5-min Rain = 0
KCH1 262028Z 18015KT 27/20 A2999 RMK A01 T02730199  RH  064%=      5-min Rain = 0
KCH1 262029Z 16011KT 27/20 A30 RMK A01 T02730199  RH  064%=      5-min Rain = 0
KCH1 262030Z 17014KT 28/20 A30 RMK A01 T02750202  RH  064%=      5-min Rain = 0
KCH1 262031Z 17015KT 28/20 A30 RMK A01 T02760200  RH  063%=      5-min Rain = 0
KCH1 262032Z 16015KT 28/20 A30 RMK A01 T02770201  RH  063%=      5-min Rain = 0
KCH1 262033Z 16014G20KT 28/20 A30 RMK A01 T02780202  RH  064%=      5-min Rain = 0
KCH1 262034Z 16015KT 28/20 A30 RMK A01 T02780201  RH  063%=      5-min Rain = 0
KCH1 262035Z 16014KT 28/20 A30 RMK A01 T02790201  RH  063%=      5-min Rain = 0
KCH1 262036Z 17008KT 28/20 A30 RMK A01 T02780203  RH  063%=      5-min Rain = 0
KCH1 262037Z 16008KT 28/21 A2999 RMK A01 T02790207  RH  065%=      5-min Rain = 0
KCH1 262038Z 16014G22KT 28/21 A2999 RMK A01 T02810205  RH  064%=      5-min Rain = 0
KCH1 262039Z 17016KT 28/20 A2999 RMK A01 T02820201  RH  062%=      5-min Rain = 0
KCH1 262040Z 17011G16KT 28/20 A2999 RMK A01 T02820203  RH  062%=      5-min Rain = 0
KCH1 262041Z 17011KT 28/20 A2999 RMK A01 T02830204  RH  062%=      5-min Rain = 0
KCH1 262042Z 16012KT 28/20 A2999 RMK A01 T02820201  RH  061%=      5-min Rain = 0
KCH1 262043Z 17016KT 28/20 A2999 RMK A01 T02820200  RH  061%=      5-min Rain = 0
KCH1 262044Z 16016KT 28/20 A2999 RMK A01 T02800198  RH  061%=      5-min Rain = 0
KCH1 262045Z 16018G24KT 28/20 A2999 RMK A01 T02790198  RH  061%=      5-min Rain = 0
KCH1 262046Z 17016G21KT 28/20 A2999 RMK A01 T02770196  RH  061%=      5-min Rain = 0
KCH1 262047Z 17015KT 28/20 A2999 RMK A01 T02760197  RH  062%=      5-min Rain = 0
KCH1 262048Z 17013G18KT 28/20 A2999 RMK A01 T02760198  RH  062%=      5-min Rain = 0
KCH1 262049Z 17014KT 28/20 A2999 RMK A01 T02770200  RH  063%=      5-min Rain = 0
KCH1 262050Z 16017KT 28/20 A2999 RMK A01 T02780197  RH  062%=      5-min Rain = 0
KCH1 262051Z 17011G16KT 28/20 A2999 RMK A01 T02770197  RH  062%=      5-min Rain = 0
KCH1 262052Z 17013KT 28/20 A2999 RMK A01 T02770199  RH  062%=      5-min Rain = 0
KCH1 262053Z 16011KT 28/20 A2999 RMK A01 T02760200  RH  063%=      5-min Rain = 0
KCH1 262054Z 16009G14KT 28/20 A2999 RMK A01 T02750202  RH  065%=      5-min Rain = 0
KCH1 262055Z 17012KT 27/20 A2999 RMK A01 T02740201  RH  064%=      5-min Rain = 0
KCH1 262056Z 17013G19KT 27/20 A2999 RMK A01 T02740198  RH  063%=      5-min Rain = 0
KCH1 262057Z 16014KT 27/20 A2999 RMK A01 T02730196  RH  063%=      5-min Rain = 0
KCH1 262058Z 16016G21KT 27/20 A2999 RMK A01 T02730195  RH  062%=      5-min Rain = 0
KCH1 262059Z 16012KT 27/20 A2999 RMK A01 T02720195  RH  062%=      5-min Rain = 0
KCH1 262100Z 16014KT 27/20 A2999 RMK A01 T02730196  RH  063%=      5-min Rain = 0
KCH1 262101Z 16015KT 27/20 A2999 RMK A01 T02740196  RH  062%=      5-min Rain = 0
KCH1 262102Z 17013G18KT 27/20 A2999 RMK A01 T02740195  RH  062%=      5-min Rain = 0
KCH1 262103Z 16013KT 28/20 A2999 RMK A01 T02750196  RH  062%=      5-min Rain = 0
KCH1 262104Z 16013KT 28/20 A2999 RMK A01 T02760197  RH  062%=      5-min Rain = 0
KCH1 262105Z 16016G22KT 28/20 A2999 RMK A01 T02780196  RH  061%=      5-min Rain = 0
KCH1 262106Z 17015G20KT 28/20 A2999 RMK A01 T02790197  RH  061%=      5-min Rain = 0
KCH1 262107Z 16015G20KT 28/19 A2999 RMK A01 T02800194  RH  060%=      5-min Rain = 0
KCH1 262108Z 16016KT 28/20 A2999 RMK A01 T02790196  RH  061%=      5-min Rain = 0
KCH1 262109Z 15014KT 28/19 A2998 RMK A01 T02780193  RH  060%=      5-min Rain = 0
KCH1 262110Z 16012KT 28/20 A2998 RMK A01 T02780196  RH  061%=      5-min Rain = 0
KCH1 262111Z 15012G17KT 28/20 A2998 RMK A01 T02780197  RH  061%=      5-min Rain = 0
KCH1 262112Z 17009G17KT 28/20 A2998 RMK A01 T02790198  RH  062%=      5-min Rain = 0
KCH1 262113Z 17011KT 28/20 A2998 RMK A01 T02790200  RH  062%=      5-min Rain = 0
KCH1 262114Z 16015G21KT 28/20 A2998 RMK A01 T02800198  RH  061%=      5-min Rain = 0
KCH1 262115Z 17013KT 28/20 A2998 RMK A01 T02810198  RH  061%=      5-min Rain = 0
KCH1 262116Z 17015KT 28/20 A2998 RMK A01 T02810196  RH  060%=      5-min Rain = 0
KCH1 262117Z 17012KT 28/20 A2998 RMK A01 T02810197  RH  060%=      5-min Rain = 0
KCH1 262118Z 17013G18KT 28/20 A2998 RMK A01 T02800197  RH  061%=      5-min Rain = 0
KCH1 262119Z 17015G23KT 28/20 A2998 RMK A01 T02800197  RH  061%=      5-min Rain = 0
KCH1 262120Z 16016KT 28/19 A2998 RMK A01 T02800194  RH  059%=      5-min Rain = 0
KCH1 262121Z 16013KT 28/20 A2998 RMK A01 T02800196  RH  060%=      5-min Rain = 0
KCH1 262122Z 16012KT 28/20 A2998 RMK A01 T02790196  RH  061%=      5-min Rain = 0
KCH1 262123Z 17009KT 28/20 A2998 RMK A01 T02780198  RH  062%=      5-min Rain = 0
KCH1 262124Z 16011KT 28/20 A2998 RMK A01 T02770198  RH  062%=      5-min Rain = 0
KCH1 262125Z 17010KT 28/20 A2998 RMK A01 T02770199  RH  062%=      5-min Rain = 0
KCH1 262126Z 16010KT 28/20 A2998 RMK A01 T02760199  RH  063%=      5-min Rain = 0
KCH1 262127Z 17011KT 28/20 A2998 RMK A01 T02760197  RH  062%=      5-min Rain = 0
KCH1 262128Z 16011KT 28/20 A2998 RMK A01 T02750198  RH  063%=      5-min Rain = 0
KCH1 262129Z 16014KT 28/20 A2998 RMK A01 T02750198  RH  063%=      5-min Rain = 0
KCH1 262130Z 16014G19KT 28/20 A2998 RMK A01 T02750196  RH  062%=      5-min Rain = 0
KCH1 262131Z 15016G21KT 28/19 A2998 RMK A01 T02750194  RH  061%=      5-min Rain = 0
KCH1 262132Z 16017G23KT 28/19 A2998 RMK A01 T02750194  RH  061%=      5-min Rain = 0
KCH1 262133Z 16015G21KT 28/19 A2998 RMK A01 T02750193  RH  061%=      5-min Rain = 0
KCH1 262134Z 17012G17KT 28/19 A2998 RMK A01 T02750193  RH  061%=      5-min Rain = 0
KCH1 262135Z 16012G17KT 28/19 A2998 RMK A01 T02750194  RH  061%=      5-min Rain = 0
KCH1 262136Z 17012KT 28/19 A2997 RMK A01 T02750193  RH  061%=      5-min Rain = 0
KCH1 262137Z 17012KT 28/20 A2997 RMK A01 T02750195  RH  062%=      5-min Rain = 0
KCH1 262138Z 16013KT 28/20 A2997 RMK A01 T02750195  RH  062%=      5-min Rain = 0
KCH1 262139Z 17014KT 28/20 A2997 RMK A01 T02750195  RH  062%=      5-min Rain = 0
KCH1 262140Z 17015KT 28/19 A2997 RMK A01 T02750194  RH  061%=      5-min Rain = 0
KCH1 262141Z 17013G20KT 28/19 A2997 RMK A01 T02750193  RH  061%=      5-min Rain = 0
KCH1 262142Z 16014G19KT 28/19 A2997 RMK A01 T02750194  RH  061%=      5-min Rain = 0
KCH1 262143Z 16015KT 28/19 A2997 RMK A01 T02750193  RH  061%=      5-min Rain = 0
KCH1 262144Z 16011G16KT 28/19 A2997 RMK A01 T02750194  RH  061%=      5-min Rain = 0
KCH1 262145Z 16015KT 28/19 A2997 RMK A01 T02760193  RH  061%=      5-min Rain = 0
KCH1 262146Z 17011KT 28/19 A2997 RMK A01 T02760193  RH  061%=      5-min Rain = 0
KCH1 262147Z 17011KT 28/19 A2997 RMK A01 T02760194  RH  061%=      5-min Rain = 0
KCH1 262148Z 17009KT 28/20 A2997 RMK A01 T02770196  RH  062%=      5-min Rain = 0
KCH1 262149Z 17012KT 28/19 A2997 RMK A01 T02770194  RH  061%=      5-min Rain = 0
KCH1 262150Z 17011KT 28/20 A2997 RMK A01 T02770196  RH  061%=      5-min Rain = 0
KCH1 262151Z 17012KT 28/20 A2997 RMK A01 T02780197  RH  061%=      5-min Rain = 0
KCH1 262152Z 17012KT 28/20 A2997 RMK A01 T02790196  RH  060%=      5-min Rain = 0
KCH1 262153Z 18008KT 28/20 A2997 RMK A01 T02800199  RH  061%=      5-min Rain = 0
KCH1 262154Z 17008KT 28/20 A2997 RMK A01 T02810201  RH  062%=      5-min Rain = 0
KCH1 262155Z 16007KT 28/20 A2997 RMK A01 T02810200  RH  062%=      5-min Rain = 0
KCH1 262156Z 16009KT 28/20 A2997 RMK A01 T02800201  RH  062%=      5-min Rain = 0
KCH1 262157Z 17011KT 28/20 A2997 RMK A01 T02790199  RH  062%=      5-min Rain = 0
KCH1 262158Z 17011KT 28/20 A2997 RMK A01 T02780198  RH  062%=      5-min Rain = 0
KCH1 262159Z 18010G15KT 28/20 A2997 RMK A01 T02770199  RH  062%=      5-min Rain = 0
KCH1 262200Z 17016KT 28/19 A2997 RMK A01 T02770194  RH  061%=      5-min Rain = 0
KCH1 262201Z 17013KT 28/20 A2997 RMK A01 T02760195  RH  061%=      5-min Rain = 0
KCH1 262202Z 17012KT 28/19 A2997 RMK A01 T02760194  RH  061%=      5-min Rain = 0
KCH1 262203Z 17015KT 28/19 A2997 RMK A01 T02750193  RH  061%=      5-min Rain = 0
KCH1 262204Z 16011KT 28/19 A2997 RMK A01 T02750193  RH  061%=      5-min Rain = 0
KCH1 262205Z 18009KT 28/20 A2997 RMK A01 T02750195  RH  061%=      5-min Rain = 0
KCH1 262206Z 17010G15KT 28/20 A2997 RMK A01 T02760195  RH  061%=      5-min Rain = 0
KCH1 262207Z 17015KT 28/19 A2997 RMK A01 T02760193  RH  061%=      5-min Rain = 0
KCH1 262208Z 17013KT 28/19 A2997 RMK A01 T02760190  RH  059%=      5-min Rain = 0
KCH1 262209Z 18012KT 28/19 A2997 RMK A01 T02770193  RH  060%=      5-min Rain = 0
KCH1 262210Z 17011KT 28/20 A2997 RMK A01 T02780195  RH  061%=      5-min Rain = 0
KCH1 262211Z 16010G17KT 28/20 A2996 RMK A01 T02780196  RH  061%=      5-min Rain = 0
KCH1 262212Z 16010G16KT 28/20 A2996 RMK A01 T02780197  RH  061%=      5-min Rain = 0
KCH1 262213Z 16011G18KT 28/19 A2996 RMK A01 T02780193  RH  060%=      5-min Rain = 0
KCH1 262214Z 17013G18KT 28/19 A2996 RMK A01 T02790193  RH  059%=      5-min Rain = 0
KCH1 262215Z 16013KT 28/19 A2996 RMK A01 T02800191  RH  058%=      5-min Rain = 0
KCH1 262216Z 15013KT 28/20 A2996 RMK A01 T02820195  RH  059%=      5-min Rain = 0
KCH1 262217Z 15013KT 28/19 A2996 RMK A01 T02830194  RH  058%=      5-min Rain = 0
KCH1 262218Z 15012KT 28/20 A2995 RMK A01 T02830195  RH  059%=      5-min Rain = 0
KCH1 262219Z 15013KT 28/20 A2995 RMK A01 T02830195  RH  059%=      5-min Rain = 0
KCH1 262220Z 16014G20KT 28/20 A2995 RMK A01 T02840195  RH  058%=      5-min Rain = 0
KCH1 262221Z 16014KT 28/19 A2995 RMK A01 T02840193  RH  058%=      5-min Rain = 0
KCH1 262222Z 15015G20KT 28/19 A2996 RMK A01 T02840194  RH  058%=      5-min Rain = 0
KCH1 262223Z 17013G18KT 29/19 A2995 RMK A01 T02850191  RH  057%=      5-min Rain = 0
KCH1 262224Z 17014KT 29/19 A2996 RMK A01 T02850193  RH  058%=      5-min Rain = 0
KCH1 262225Z 17014G19KT 29/19 A2996 RMK A01 T02850193  RH  058%=      5-min Rain = 0
KCH1 262226Z 16015KT 29/19 A2996 RMK A01 T02850192  RH  057%=      5-min Rain = 0
KCH1 262227Z 16015KT 29/19 A2996 RMK A01 T02850193  RH  057%=      5-min Rain = 0
KCH1 262228Z 17013G18KT 28/19 A2996 RMK A01 T02840193  RH  058%=      5-min Rain = 0
KCH1 262229Z 17012KT 29/20 A2996 RMK A01 T02850196  RH  059%=      5-min Rain = 0
KCH1 262230Z 17012KT 29/20 A2996 RMK A01 T02850198  RH  059%=      5-min Rain = 0
KCH1 262231Z 17014KT 29/20 A2996 RMK A01 T02860196  RH  058%=      5-min Rain = 0
KCH1 262232Z 17013KT 29/20 A2996 RMK A01 T02860196  RH  058%=      5-min Rain = 0
KCH1 262233Z 16013G18KT 29/20 A2996 RMK A01 T02850196  RH  058%=      5-min Rain = 0
KCH1 262234Z 17012KT 29/20 A2996 RMK A01 T02850198  RH  059%=      5-min Rain = 0
KCH1 262235Z 17015KT 29/19 A2996 RMK A01 T02850194  RH  058%=      5-min Rain = 0
KCH1 262236Z 16016KT 28/19 A2996 RMK A01 T02840194  RH  058%=      5-min Rain = 0
KCH1 262237Z 16016KT 28/19 A2996 RMK A01 T02830192  RH  058%=      5-min Rain = 0
KCH1 262238Z 17014KT 28/19 A2996 RMK A01 T02820193  RH  058%=      5-min Rain = 0
KCH1 262239Z 17010KT 28/20 A2996 RMK A01 T02810195  RH  059%=      5-min Rain = 0
KCH1 262240Z 17011KT 28/20 A2996 RMK A01 T02810197  RH  060%=      5-min Rain = 0
KCH1 262241Z 17011G16KT 28/19 A2996 RMK A01 T02800194  RH  060%=      5-min Rain = 0
KCH1 262242Z 16012G19KT 28/20 A2996 RMK A01 T02800195  RH  060%=      5-min Rain = 0
KCH1 262243Z 16017KT 28/19 A2995 RMK A01 T02800194  RH  060%=      5-min Rain = 0
KCH1 262244Z 17015KT 28/19 A2995 RMK A01 T02790191  RH  059%=      5-min Rain = 0
KCH1 262245Z 16016G21KT 28/19 A2995 RMK A01 T02790194  RH  060%=      5-min Rain = 0
KCH1 262246Z 17014KT 28/19 A2995 RMK A01 T02790193  RH  060%=      5-min Rain = 0
KCH1 262247Z 17013G19KT 28/20 A2995 RMK A01 T02780195  RH  061%=      5-min Rain = 0
KCH1 262248Z 16014G20KT 28/20 A2995 RMK A01 T02780195  RH  061%=      5-min Rain = 0
KCH1 262249Z 16013KT 28/20 A2995 RMK A01 T02770195  RH  061%=      5-min Rain = 0
KCH1 262250Z 17010KT 28/20 A2995 RMK A01 T02770195  RH  061%=      5-min Rain = 0
KCH1 262251Z 17010KT 28/20 A2995 RMK A01 T02770197  RH  062%=      5-min Rain = 0
KCH1 262252Z 17011KT 28/20 A2995 RMK A01 T02770197  RH  062%=      5-min Rain = 0
KCH1 262253Z 17013KT 28/20 A2995 RMK A01 T02760195  RH  061%=      5-min Rain = 0
KCH1 262254Z 17011KT 28/19 A2995 RMK A01 T02760193  RH  061%=      5-min Rain = 0
KCH1 262255Z 17010G15KT 28/20 A2995 RMK A01 T02760196  RH  062%=      5-min Rain = 0
KCH1 262256Z 17011KT 28/20 A2995 RMK A01 T02760195  RH  061%=      5-min Rain = 0
KCH1 262257Z 17012KT 28/19 A2995 RMK A01 T02760194  RH  061%=      5-min Rain = 0
KCH1 262258Z 18010KT 28/20 A2995 RMK A01 T02760196  RH  062%=      5-min Rain = 0
KCH1 262259Z 17009G14KT 28/19 A2995 RMK A01 T02760194  RH  061%=      5-min Rain = 0
KCH1 262300Z 17011KT 28/20 A2995 RMK A01 T02760196  RH  062%=      5-min Rain = 0
KCH1 262301Z 17012KT 28/20 A2995 RMK A01 T02760195  RH  061%=      5-min Rain = 0
KCH1 262302Z 17015G20KT 28/19 A2995 RMK A01 T02760192  RH  060%=      5-min Rain = 0
KCH1 262303Z 16014KT 28/19 A2995 RMK A01 T02760192  RH  060%=      5-min Rain = 0
KCH1 262304Z 16013KT 28/19 A2995 RMK A01 T02760194  RH  061%=      5-min Rain = 0
KCH1 262305Z 17009KT 28/19 A2995 RMK A01 T02760194  RH  061%=      5-min Rain = 0
KCH1 262306Z 16010KT 28/19 A2995 RMK A01 T02750194  RH  061%=      5-min Rain = 0
KCH1 262307Z 17009KT 28/20 A2995 RMK A01 T02750195  RH  062%=      5-min Rain = 0
KCH1 262308Z 17009KT 27/20 A2995 RMK A01 T02740196  RH  062%=      5-min Rain = 0
KCH1 262309Z 16011KT 27/20 A2994 RMK A01 T02730197  RH  063%=      5-min Rain = 0
KCH1 262310Z 17011KT 27/20 A2994 RMK A01 T02730195  RH  062%=      5-min Rain = 0
KCH1 262311Z 16009KT 27/20 A2994 RMK A01 T02730196  RH  063%=      5-min Rain = 0
KCH1 262312Z 17010KT 27/20 A2994 RMK A01 T02730196  RH  063%=      5-min Rain = 0
KCH1 262313Z 16008KT 27/20 A2994 RMK A01 T02730196  RH  063%=      5-min Rain = 0
KCH1 262314Z 17010KT 27/20 A2994 RMK A01 T02720196  RH  063%=      5-min Rain = 0
KCH1 262315Z 16010G15KT 27/19 A2994 RMK A01 T02720194  RH  062%=      5-min Rain = 0
KCH1 262316Z 16009G14KT 27/20 A2994 RMK A01 T02720195  RH  063%=      5-min Rain = 0
KCH1 262317Z 16010KT 27/20 A2994 RMK A01 T02720195  RH  063%=      5-min Rain = 0
KCH1 262318Z 16011KT 27/20 A2993 RMK A01 T02720195  RH  063%=      5-min Rain = 0
KCH1 262319Z 16010KT 27/20 A2993 RMK A01 T02720195  RH  063%=      5-min Rain = 0
KCH1 262320Z 16011G16KT 27/19 A2993 RMK A01 T02720194  RH  062%=      5-min Rain = 0
KCH1 262321Z 16009KT 27/19 A2993 RMK A01 T02720193  RH  062%=      5-min Rain = 0
KCH1 262322Z 16011KT 27/19 A2993 RMK A01 T02720193  RH  062%=      5-min Rain = 0
KCH1 262323Z 16010KT 27/19 A2993 RMK A01 T02720194  RH  062%=      5-min Rain = 0
KCH1 262324Z 16011KT 27/19 A2993 RMK A01 T02720193  RH  062%=      5-min Rain = 0
KCH1 262325Z 16008G13KT 27/20 A2993 RMK A01 T02720195  RH  063%=      5-min Rain = 0
KCH1 262326Z 16011KT 27/19 A2993 RMK A01 T02720194  RH  062%=      5-min Rain = 0
KCH1 262327Z 16011KT 27/19 A2993 RMK A01 T02710193  RH  062%=      5-min Rain = 0
KCH1 262328Z 16011KT 27/19 A2993 RMK A01 T02710192  RH  062%=      5-min Rain = 0
KCH1 262329Z 16010KT 27/19 A2993 RMK A01 T02720192  RH  062%=      5-min Rain = 0
KCH1 262330Z 16010KT 27/19 A2993 RMK A01 T02720192  RH  062%=      5-min Rain = 0
KCH1 262331Z 17008KT 27/19 A2993 RMK A01 T02720193  RH  062%=      5-min Rain = 0
KCH1 262332Z 17008KT 27/19 A2993 RMK A01 T02720193  RH  062%=      5-min Rain = 0
KCH1 262333Z 16013KT 27/19 A2993 RMK A01 T02710192  RH  062%=      5-min Rain = 0
KCH1 262334Z 16011KT 27/19 A2993 RMK A01 T02710191  RH  062%=      5-min Rain = 0
KCH1 262335Z 16012KT 27/19 A2993 RMK A01 T02710192  RH  062%=      5-min Rain = 0
KCH1 262336Z 16009KT 27/19 A2993 RMK A01 T02710191  RH  061%=      5-min Rain = 0
KCH1 262337Z 16009KT 27/19 A2993 RMK A01 T02720193  RH  062%=      5-min Rain = 0
KCH1 262338Z 15010KT 27/19 A2993 RMK A01 T02710193  RH  062%=      5-min Rain = 0
KCH1 262339Z 15011KT 27/19 A2993 RMK A01 T02710193  RH  062%=      5-min Rain = 0
KCH1 262340Z 16010KT 27/19 A2993 RMK A01 T02710192  RH  062%=      5-min Rain = 0
KCH1 262341Z 16009G15KT 27/19 A2993 RMK A01 T02710191  RH  062%=      5-min Rain = 0
KCH1 262342Z 15008KT 27/19 A2993 RMK A01 T02710193  RH  062%=      5-min Rain = 0
KCH1 262343Z 16009KT 27/19 A2993 RMK A01 T02710193  RH  062%=      5-min Rain = 0
KCH1 262344Z 15008KT 27/19 A2993 RMK A01 T02710194  RH  063%=      5-min Rain = 0
KCH1 262345Z 15008KT 27/19 A2992 RMK A01 T02710194  RH  063%=      5-min Rain = 0
KCH1 262346Z 15009KT 27/19 A2992 RMK A01 T02710194  RH  063%=      5-min Rain = 0
KCH1 262347Z 15008KT 27/19 A2992 RMK A01 T02700194  RH  063%=      5-min Rain = 0
KCH1 262348Z 14010KT 27/20 A2992 RMK A01 T02700195  RH  063%=      5-min Rain = 0
KCH1 262349Z 15012KT 27/19 A2992 RMK A01 T02700193  RH  063%=      5-min Rain = 0
KCH1 262350Z 16010KT 27/19 A2992 RMK A01 T02700193  RH  062%=      5-min Rain = 0
KCH1 262351Z 15009KT 27/19 A2992 RMK A01 T02710194  RH  063%=      5-min Rain = 0
KCH1 262352Z 15010KT 27/19 A2992 RMK A01 T02710193  RH  062%=      5-min Rain = 0
KCH1 262353Z 16010KT 27/19 A2992 RMK A01 T02710192  RH  062%=      5-min Rain = 0
KCH1 262354Z 16009KT 27/19 A2992 RMK A01 T02710193  RH  063%=      5-min Rain = 0
KCH1 262355Z 15008G13KT 27/19 A2992 RMK A01 T02710194  RH  063%=      5-min Rain = 0
KCH1 262356Z 16010KT 27/19 A2992 RMK A01 T02700193  RH  063%=      5-min Rain = 0
KCH1 262357Z 15010KT 27/19 A2992 RMK A01 T02700193  RH  063%=      5-min Rain = 0
KCH1 262358Z 15009KT 27/19 A2992 RMK A01 T02700194  RH  063%=      5-min Rain = 0
KCH1 262359Z 15010KT 27/19 A2992 RMK A01 T02700193  RH  063%=      5-min Rain = 0
KCH1 270000Z 15010KT 27/19 A2991 RMK A01 T02710194  RH  063%=      5-min Rain = 0
KCH1 270001Z 15007KT 27/19 A2991 RMK A01 T02700193  RH  063%=      5-min Rain = 0
KCH1 270002Z 15008KT 27/20 A2991 RMK A01 T02700196  RH  064%=      5-min Rain = 0
KCH1 270003Z 15009KT 27/20 A2991 RMK A01 T02690195  RH  064%=      5-min Rain = 0
KCH1 270004Z 15009KT 27/19 A2992 RMK A01 T02690194  RH  064%=      5-min Rain = 0
KCH1 270005Z 15010KT 27/19 A2992 RMK A01 T02690194  RH  063%=      5-min Rain = 0
KCH1 270006Z 16007KT 27/19 A2992 RMK A01 T02690194  RH  063%=      5-min Rain = 0
KCH1 270007Z 15008KT 27/20 A2992 RMK A01 T02690195  RH  064%=      5-min Rain = 0
KCH1 270008Z 15009KT 27/19 A2991 RMK A01 T02690193  RH  063%=      5-min Rain = 0
KCH1 270009Z 15008KT 27/19 A2991 RMK A01 T02680193  RH  064%=      5-min Rain = 0
KCH1 270010Z 15009KT 27/19 A2991 RMK A01 T02690194  RH  064%=      5-min Rain = 0
KCH1 270011Z 16008KT 27/20 A2991 RMK A01 T02680195  RH  064%=      5-min Rain = 0
KCH1 270012Z 15010KT 27/19 A2991 RMK A01 T02680194  RH  064%=      5-min Rain = 0
KCH1 270013Z 14010KT 27/19 A2991 RMK A01 T02680193  RH  063%=      5-min Rain = 0
KCH1 270014Z 15010KT 27/19 A2991 RMK A01 T02680192  RH  063%=      5-min Rain = 0
KCH1 270015Z 16009KT 27/19 A2991 RMK A01 T02680192  RH  063%=      5-min Rain = 0
KCH1 270016Z 15009G14KT 27/19 A2991 RMK A01 T02690193  RH  063%=      5-min Rain = 0
KCH1 270017Z 15012G17KT 27/19 A2991 RMK A01 T02680192  RH  063%=      5-min Rain = 0
KCH1 270018Z 15009KT 27/19 A2991 RMK A01 T02690192  RH  063%=      5-min Rain = 0
KCH1 270019Z 15010KT 27/19 A2991 RMK A01 T02690193  RH  063%=      5-min Rain = 0
KCH1 270020Z 15010KT 27/19 A2991 RMK A01 T02690193  RH  063%=      5-min Rain = 0
KCH1 270021Z 15010KT 27/19 A2991 RMK A01 T02690193  RH  063%=      5-min Rain = 0
KCH1 270022Z 15009KT 27/19 A2991 RMK A01 T02680194  RH  064%=      5-min Rain = 0
KCH1 270023Z 15007KT 27/20 A2991 RMK A01 T02680195  RH  064%=      5-min Rain = 0
KCH1 270024Z 15008KT 27/19 A2991 RMK A01 T02670194  RH  065%=      5-min Rain = 0
KCH1 270025Z 15008KT 27/20 A2991 RMK A01 T02660195  RH  065%=      5-min Rain = 0
KCH1 270026Z 15009KT 27/20 A2991 RMK A01 T02660195  RH  065%=      5-min Rain = 0
KCH1 270027Z 15010KT 27/20 A2991 RMK A01 T02660195  RH  065%=      5-min Rain = 0
KCH1 270028Z 15009KT 27/20 A2991 RMK A01 T02660195  RH  065%=      5-min Rain = 0
KCH1 270029Z 15011KT 27/20 A2991 RMK A01 T02660195  RH  065%=      5-min Rain = 0
KCH1 270030Z 15010KT 27/20 A2991 RMK A01 T02660195  RH  065%=      5-min Rain = 0
KCH1 270031Z 14010KT 27/20 A2991 RMK A01 T02660195  RH  065%=      5-min Rain = 0
KCH1 270032Z 15011KT 27/20 A2991 RMK A01 T02660195  RH  065%=      5-min Rain = 0
KCH1 270033Z 15011KT 27/20 A2991 RMK A01 T02660195  RH  065%=      5-min Rain = 0
KCH1 270034Z 15010KT 27/20 A2991 RMK A01 T02660195  RH  065%=      5-min Rain = 0
KCH1 270035Z 15010KT 27/20 A2991 RMK A01 T02660195  RH  065%=      5-min Rain = 0
KCH1 270036Z 15012G17KT 27/20 A2991 RMK A01 T02660195  RH  065%=      5-min Rain = 0
KCH1 270037Z 15014KT 27/19 A2991 RMK A01 T02660194  RH  065%=      5-min Rain = 0
KCH1 270038Z 15010KT 27/20 A2991 RMK A01 T02660195  RH  065%=      5-min Rain = 0
KCH1 270039Z 15010KT 27/20 A2991 RMK A01 T02660195  RH  065%=      5-min Rain = 0
KCH1 270040Z 15010G15KT 27/20 A2991 RMK A01 T02660196  RH  066%=      5-min Rain = 0
KCH1 270041Z 14012KT 27/20 A2991 RMK A01 T02650195  RH  065%=      5-min Rain = 0
KCH1 270042Z 15011KT 27/20 A2991 RMK A01 T02650195  RH  065%=      5-min Rain = 0
KCH1 270043Z 15009KT 27/20 A2991 RMK A01 T02650196  RH  066%=      5-min Rain = 0
KCH1 270044Z 14011KT 26/20 A299 RMK A01 T02640195  RH  066%=      5-min Rain = 0
KCH1 270045Z 15009KT 26/20 A299 RMK A01 T02640195  RH  066%=      5-min Rain = 0
KCH1 270046Z 14009KT 26/20 A299 RMK A01 T02640195  RH  066%=      5-min Rain = 0
KCH1 270047Z 15012KT 26/19 A299 RMK A01 T02630194  RH  066%=      5-min Rain = 0
KCH1 270048Z 15010KT 26/19 A299 RMK A01 T02630194  RH  066%=      5-min Rain = 0
KCH1 270049Z 14010KT 26/19 A299 RMK A01 T02630194  RH  066%=      5-min Rain = 0
KCH1 270050Z 15010KT 26/20 A2991 RMK A01 T02630195  RH  066%=      5-min Rain = 0
KCH1 270051Z 14010KT 26/20 A2991 RMK A01 T02630195  RH  066%=      5-min Rain = 0
KCH1 270052Z 15012KT 26/19 A2991 RMK A01 T02630194  RH  066%=      5-min Rain = 0
KCH1 270053Z 15008KT 26/19 A2991 RMK A01 T02620194  RH  066%=      5-min Rain = 0
KCH1 270054Z 14010KT 26/20 A2991 RMK A01 T02630195  RH  066%=      5-min Rain = 0
KCH1 270055Z 15010KT 26/19 A2991 RMK A01 T02630194  RH  066%=      5-min Rain = 0
KCH1 270056Z 15012KT 26/20 A299 RMK A01 T02630195  RH  066%=      5-min Rain = 0
KCH1 270057Z 14012KT 26/19 A299 RMK A01 T02630194  RH  066%=      5-min Rain = 0
KCH1 270058Z 14010G15KT 26/19 A299 RMK A01 T02630194  RH  066%=      5-min Rain = 0
KCH1 270059Z 15012KT 26/20 A299 RMK A01 T02630195  RH  066%=      5-min Rain = 0
KCH1 270100Z 15014KT 26/19 A299 RMK A01 T02630194  RH  066%=      5-min Rain = 0
KCH1 270101Z 15012KT 26/19 A299 RMK A01 T02630194  RH  066%=      5-min Rain = 0
KCH1 270102Z 14011KT 26/19 A299 RMK A01 T02630194  RH  066%=      5-min Rain = 0
KCH1 270103Z 14012KT 26/20 A299 RMK A01 T02630195  RH  066%=      5-min Rain = 0
KCH1 270104Z 15009KT 26/20 A2991 RMK A01 T02640195  RH  066%=      5-min Rain = 0
KCH1 270105Z 15008KT 26/20 A2991 RMK A01 T02630196  RH  067%=      5-min Rain = 0
KCH1 270106Z 15010KT 26/20 A2991 RMK A01 T02620196  RH  067%=      5-min Rain = 0
KCH1 270107Z 15012KT 26/20 A2991 RMK A01 T02610195  RH  067%=      5-min Rain = 0
KCH1 270108Z 15011KT 26/20 A2991 RMK A01 T02610195  RH  067%=      5-min Rain = 0
KCH1 270109Z 15012KT 26/20 A2991 RMK A01 T02610195  RH  067%=      5-min Rain = 0
KCH1 270110Z 15011KT 26/20 A2991 RMK A01 T02620195  RH  067%=      5-min Rain = 0
KCH1 270111Z 15009KT 26/20 A2991 RMK A01 T02620196  RH  067%=      5-min Rain = 0
KCH1 270112Z 15011KT 26/20 A2991 RMK A01 T02620196  RH  067%=      5-min Rain = 0
KCH1 270113Z 15010KT 26/20 A2991 RMK A01 T02620196  RH  067%=      5-min Rain = 0
KCH1 270114Z 15010KT 26/20 A2991 RMK A01 T02620196  RH  067%=      5-min Rain = 0
KCH1 270115Z 15010KT 26/20 A2991 RMK A01 T02620196  RH  067%=      5-min Rain = 0
KCH1 270116Z 15011KT 26/20 A2991 RMK A01 T02620196  RH  067%=      5-min Rain = 0
KCH1 270117Z 15010G16KT 26/20 A2991 RMK A01 T02610196  RH  067%=      5-min Rain = 0
KCH1 270118Z 14011KT 26/20 A2991 RMK A01 T02620196  RH  067%=      5-min Rain = 0
KCH1 270119Z 15010KT 26/20 A299 RMK A01 T02610196  RH  067%=      5-min Rain = 0
KCH1 270120Z 14011KT 26/20 A299 RMK A01 T02610196  RH  068%=      5-min Rain = 0
KCH1 270121Z 15013KT 26/20 A299 RMK A01 T02610196  RH  067%=      5-min Rain = 0
KCH1 270122Z 14010KT 26/20 A299 RMK A01 T02610196  RH  067%=      5-min Rain = 0
KCH1 270123Z 14013KT 26/20 A299 RMK A01 T02610196  RH  067%=      5-min Rain = 0
KCH1 270124Z 15011KT 26/20 A299 RMK A01 T02610196  RH  067%=      5-min Rain = 0
KCH1 270125Z 15016KT 26/20 A299 RMK A01 T02610196  RH  067%=      5-min Rain = 0
KCH1 270126Z 15013KT 26/20 A299 RMK A01 T02610195  RH  067%=      5-min Rain = 0
KCH1 270127Z 15011KT 26/20 A299 RMK A01 T02620196  RH  067%=      5-min Rain = 0
KCH1 270128Z 15012G18KT 26/20 A299 RMK A01 T02610196  RH  067%=      5-min Rain = 0
KCH1 270129Z 15014KT 26/20 A299 RMK A01 T02610196  RH  067%=      5-min Rain = 0
KCH1 270130Z 15016KT 26/20 A299 RMK A01 T02610195  RH  067%=      5-min Rain = 0
KCH1 270131Z 15012G17KT 26/20 A299 RMK A01 T02610195  RH  067%=      5-min Rain = 0
KCH1 270132Z 15010KT 26/20 A299 RMK A01 T02620196  RH  067%=      5-min Rain = 0
KCH1 270133Z 14013KT 26/20 A299 RMK A01 T02620196  RH  067%=      5-min Rain = 0
KCH1 270134Z 15011G16KT 26/20 A299 RMK A01 T02620196  RH  067%=      5-min Rain = 0
KCH1 270135Z 15013KT 26/20 A299 RMK A01 T02620196  RH  067%=      5-min Rain = 0
KCH1 270136Z 15010KT 26/20 A299 RMK A01 T02620196  RH  067%=      5-min Rain = 0
KCH1 270137Z 16011KT 26/20 A299 RMK A01 T02610197  RH  067%=      5-min Rain = 0
KCH1 270138Z 15010KT 26/20 A299 RMK A01 T02610196  RH  068%=      5-min Rain = 0
KCH1 270139Z 15014KT 26/20 A299 RMK A01 T02600196  RH  068%=      5-min Rain = 0
KCH1 270140Z 15013KT 26/20 A299 RMK A01 T02600196  RH  068%=      5-min Rain = 0
KCH1 270141Z 14011KT 26/20 A299 RMK A01 T02600195  RH  067%=      5-min Rain = 0
KCH1 270142Z 14010KT 26/20 A299 RMK A01 T02600196  RH  068%=      5-min Rain = 0
KCH1 270143Z 15012KT 26/20 A299 RMK A01 T02600196  RH  068%=      5-min Rain = 0
KCH1 270144Z 14011KT 26/20 A299 RMK A01 T02600196  RH  068%=      5-min Rain = 0
KCH1 270145Z 14011G16KT 26/20 A299 RMK A01 T02600196  RH  068%=      5-min Rain = 0
KCH1 270146Z 15013KT 26/20 A299 RMK A01 T02600196  RH  068%=      5-min Rain = 0
KCH1 270147Z 14011KT 26/20 A299 RMK A01 T02590196  RH  068%=      5-min Rain = 0
KCH1 270148Z 14010KT 26/20 A299 RMK A01 T02590196  RH  068%=      5-min Rain = 0
KCH1 270149Z 15010KT 26/20 A299 RMK A01 T02590196  RH  068%=      5-min Rain = 0
KCH1 270150Z 14009KT 26/20 A299 RMK A01 T02590197  RH  069%=      5-min Rain = 0
KCH1 270151Z 15010KT 26/20 A299 RMK A01 T02580196  RH  069%=      5-min Rain = 0
KCH1 270152Z 14008KT 26/20 A299 RMK A01 T02580196  RH  069%=      5-min Rain = 0
KCH1 270153Z 14008G14KT 26/20 A299 RMK A01 T02570197  RH  069%=      5-min Rain = 0
KCH1 270154Z 14012KT 26/20 A299 RMK A01 T02570197  RH  069%=      5-min Rain = 0
KCH1 270155Z 14009KT 26/20 A299 RMK A01 T02570196  RH  069%=      5-min Rain = 0
KCH1 270156Z 15009KT 26/20 A299 RMK A01 T02570196  RH  069%=      5-min Rain = 0
KCH1 270157Z 14010KT 26/20 A299 RMK A01 T02570197  RH  070%=      5-min Rain = 0
KCH1 270158Z 15008G13KT 26/20 A299 RMK A01 T02560197  RH  070%=      5-min Rain = 0
KCH1 270159Z 14011KT 26/20 A299 RMK A01 T02560196  RH  069%=      5-min Rain = 0
KCH1 270200Z 15011KT 26/20 A299 RMK A01 T02560196  RH  069%=      5-min Rain = 0
KCH1 270201Z 15011G16KT 26/20 A299 RMK A01 T02560196  RH  069%=      5-min Rain = 0
KCH1 270202Z 15010KT 26/20 A299 RMK A01 T02570196  RH  069%=      5-min Rain = 0
KCH1 270203Z 14011KT 26/20 A299 RMK A01 T02570196  RH  069%=      5-min Rain = 0
KCH1 270204Z 15010KT 26/20 A299 RMK A01 T02570196  RH  069%=      5-min Rain = 0
KCH1 270205Z 15008KT 26/20 A299 RMK A01 T02570196  RH  069%=      5-min Rain = 0
KCH1 270206Z 15008KT 26/20 A299 RMK A01 T02570197  RH  070%=      5-min Rain = 0
KCH1 270207Z 14009KT 26/20 A299 RMK A01 T02560196  RH  070%=      5-min Rain = 0
KCH1 270208Z 14009KT 26/20 A299 RMK A01 T02560196  RH  070%=      5-min Rain = 0
KCH1 270209Z 14010KT 26/20 A299 RMK A01 T02550196  RH  070%=      5-min Rain = 0
KCH1 270210Z 14011KT 26/20 A299 RMK A01 T02550196  RH  070%=      5-min Rain = 0
KCH1 270211Z 15008KT 26/20 A299 RMK A01 T02550196  RH  070%=      5-min Rain = 0
KCH1 270212Z 14011KT 26/20 A299 RMK A01 T02550196  RH  070%=      5-min Rain = 0
KCH1 270213Z 15012KT 26/20 A299 RMK A01 T02550195  RH  069%=      5-min Rain = 0
KCH1 270214Z 15009G14KT 26/20 A299 RMK A01 T02560195  RH  069%=      5-min Rain = 0
KCH1 270215Z 15008KT 26/20 A299 RMK A01 T02560196  RH  069%=      5-min Rain = 0
KCH1 270216Z 15012KT 26/20 A299 RMK A01 T02560196  RH  069%=      5-min Rain = 0
KCH1 270217Z 14010KT 26/20 A299 RMK A01 T02560195  RH  069%=      5-min Rain = 0
KCH1 270218Z 15010KT 26/20 A299 RMK A01 T02560195  RH  069%=      5-min Rain = 0
KCH1 270219Z 14010KT 26/20 A299 RMK A01 T02560195  RH  069%=      5-min Rain = 0
KCH1 270220Z 15009KT 26/20 A299 RMK A01 T02560196  RH  069%=      5-min Rain = 0
KCH1 270221Z 14009KT 26/20 A299 RMK A01 T02550196  RH  070%=      5-min Rain = 0
KCH1 270222Z 15011KT 26/20 A299 RMK A01 T02550196  RH  070%=      5-min Rain = 0
KCH1 270223Z 14011KT 26/20 A299 RMK A01 T02550195  RH  069%=      5-min Rain = 0
KCH1 270224Z 15009KT 26/20 A299 RMK A01 T02560195  RH  069%=      5-min Rain = 0
KCH1 270225Z 14008KT 26/20 A299 RMK A01 T02560196  RH  070%=      5-min Rain = 0
KCH1 270226Z 14010KT 26/20 A299 RMK A01 T02550196  RH  070%=      5-min Rain = 0
KCH1 270227Z 15010KT 26/20 A299 RMK A01 T02550195  RH  070%=      5-min Rain = 0
KCH1 270228Z 14013G18KT 26/20 A299 RMK A01 T02550195  RH  069%=      5-min Rain = 0
KCH1 270229Z 15008KT 26/20 A299 RMK A01 T02560195  RH  069%=      5-min Rain = 0
KCH1 270230Z 14010KT 26/20 A299 RMK A01 T02560196  RH  069%=      5-min Rain = 0
KCH1 270231Z 15007KT 26/20 A2991 RMK A01 T02560196  RH  070%=      5-min Rain = 0
KCH1 270232Z 15010KT 26/20 A2991 RMK A01 T02550196  RH  070%=      5-min Rain = 0
KCH1 270233Z 14009KT 25/20 A2991 RMK A01 T02540196  RH  070%=      5-min Rain = 0
KCH1 270234Z 15010KT 25/20 A299 RMK A01 T02540195  RH  070%=      5-min Rain = 0
KCH1 270235Z 15008KT 25/20 A299 RMK A01 T02540195  RH  070%=      5-min Rain = 0
KCH1 270236Z 15009KT 25/20 A299 RMK A01 T02540195  RH  070%=      5-min Rain = 0
KCH1 270237Z 15009KT 25/20 A2991 RMK A01 T02540195  RH  070%=      5-min Rain = 0
KCH1 270238Z 16009KT 25/20 A2991 RMK A01 T02540195  RH  070%=      5-min Rain = 0
KCH1 270239Z 15009KT 25/20 A2991 RMK A01 T02540195  RH  070%=      5-min Rain = 0
KCH1 270240Z 16009KT 25/20 A2991 RMK A01 T02540195  RH  070%=      5-min Rain = 0
KCH1 270241Z 15009KT 25/20 A2991 RMK A01 T02540195  RH  070%=      5-min Rain = 0
KCH1 270242Z 16009KT 25/20 A2991 RMK A01 T02530195  RH  070%=      5-min Rain = 0
KCH1 270243Z 15010KT 25/20 A2991 RMK A01 T02530195  RH  070%=      5-min Rain = 0
KCH1 270244Z 15010KT 25/20 A2991 RMK A01 T02540195  RH  070%=      5-min Rain = 0
KCH1 270245Z 15007KT 25/20 A2991 RMK A01 T02540195  RH  070%=      5-min Rain = 0
KCH1 270246Z 15008KT 25/20 A2991 RMK A01 T02540196  RH  070%=      5-min Rain = 0
KCH1 270247Z 16009KT 25/20 A2991 RMK A01 T02530195  RH  070%=      5-min Rain = 0
KCH1 270248Z 15009KT 25/20 A2991 RMK A01 T02530195  RH  070%=      5-min Rain = 0
KCH1 270249Z 15010KT 25/20 A2991 RMK A01 T02530195  RH  070%=      5-min Rain = 0
KCH1 270250Z 14008KT 25/20 A2991 RMK A01 T02530195  RH  070%=      5-min Rain = 0
KCH1 270251Z 16010KT 25/20 A2991 RMK A01 T02530195  RH  070%=      5-min Rain = 0
KCH1 270252Z 15010KT 25/20 A2991 RMK A01 T02530195  RH  070%=      5-min Rain = 0
KCH1 270253Z 16009KT 25/19 A2991 RMK A01 T02540194  RH  070%=      5-min Rain = 0
KCH1 270254Z 15008KT 25/20 A2991 RMK A01 T02540195  RH  070%=      5-min Rain = 0
KCH1 270255Z 15011KT 25/20 A2991 RMK A01 T02530195  RH  070%=      5-min Rain = 0
KCH1 270256Z 14008KT 25/20 A2991 RMK A01 T02530195  RH  070%=      5-min Rain = 0
KCH1 270257Z 15009KT 25/20 A2991 RMK A01 T02530195  RH  070%=      5-min Rain = 0
KCH1 270258Z 15011KT 25/20 A2991 RMK A01 T02520195  RH  070%=      5-min Rain = 0
KCH1 270259Z 16008KT 25/20 A2991 RMK A01 T02530195  RH  070%=      5-min Rain = 0
KCH1 270300Z 15009KT 25/20 A2991 RMK A01 T02520195  RH  070%=      5-min Rain = 0
KCH1 270301Z 15008KT 25/20 A2991 RMK A01 T02520195  RH  071%=      5-min Rain = 0
KCH1 270302Z 15008KT 25/20 A2991 RMK A01 T02520195  RH  071%=      5-min Rain = 0
KCH1 270303Z 16009KT 25/20 A2991 RMK A01 T02520195  RH  071%=      5-min Rain = 0
KCH1 270304Z 16009KT 25/20 A2991 RMK A01 T02520195  RH  071%=      5-min Rain = 0
KCH1 270305Z 16008KT 25/20 A2991 RMK A01 T02520195  RH  071%=      5-min Rain = 0
KCH1 270306Z 15010KT 25/20 A2991 RMK A01 T02510195  RH  071%=      5-min Rain = 0
KCH1 270307Z 15009G14KT 25/20 A2991 RMK A01 T02510195  RH  071%=      5-min Rain = 0
KCH1 270308Z 15011KT 25/19 A2991 RMK A01 T02510194  RH  071%=      5-min Rain = 0
KCH1 270309Z 15008KT 25/20 A2991 RMK A01 T02520195  RH  071%=      5-min Rain = 0
KCH1 270310Z 16008KT 25/20 A2991 RMK A01 T02520195  RH  071%=      5-min Rain = 0
KCH1 270311Z 15009KT 25/20 A2991 RMK A01 T02510195  RH  071%=      5-min Rain = 0
KCH1 270312Z 15010KT 25/20 A299 RMK A01 T02510195  RH  071%=      5-min Rain = 0
KCH1 270313Z 15010KT 25/20 A299 RMK A01 T02510195  RH  071%=      5-min Rain = 0
KCH1 270314Z 15009KT 25/20 A299 RMK A01 T02510195  RH  071%=      5-min Rain = 0
KCH1 270315Z 15010KT 25/20 A299 RMK A01 T02500195  RH  072%=      5-min Rain = 0
KCH1 270316Z 15010KT 25/20 A299 RMK A01 T02490195  RH  072%=      5-min Rain = 0
KCH1 270317Z 15011KT 25/20 A299 RMK A01 T02490195  RH  072%=      5-min Rain = 0
KCH1 270318Z 15012KT 25/19 A299 RMK A01 T02490194  RH  072%=      5-min Rain = 0
KCH1 270319Z 14011KT 25/19 A299 RMK A01 T02490194  RH  072%=      5-min Rain = 0
KCH1 270320Z 15011KT 25/20 A2989 RMK A01 T02490195  RH  072%=      5-min Rain = 0
KCH1 270321Z 14011KT 25/20 A2989 RMK A01 T02490195  RH  072%=      5-min Rain = 0
KCH1 270322Z 15009KT 25/20 A2989 RMK A01 T02490195  RH  072%=      5-min Rain = 0
KCH1 270323Z 14010KT 25/20 A2989 RMK A01 T02480195  RH  072%=      5-min Rain = 0
KCH1 270324Z 14011KT 25/20 A2989 RMK A01 T02480195  RH  072%=      5-min Rain = 0
KCH1 270325Z 15011KT 25/20 A2989 RMK A01 T02480195  RH  072%=      5-min Rain = 0
KCH1 270326Z 15009KT 25/20 A2989 RMK A01 T02480195  RH  072%=      5-min Rain = 0
KCH1 270327Z 15011KT 25/20 A2989 RMK A01 T02480195  RH  072%=      5-min Rain = 0
KCH1 270328Z 14008KT 25/20 A2989 RMK A01 T02480195  RH  072%=      5-min Rain = 0
KCH1 270329Z 15009KT 25/20 A2989 RMK A01 T02480195  RH  072%=      5-min Rain = 0
KCH1 270330Z 15012KT 25/19 A299 RMK A01 T02480194  RH  072%=      5-min Rain = 0
KCH1 270331Z 15011KT 25/19 A299 RMK A01 T02490194  RH  072%=      5-min Rain = 0
KCH1 270332Z 14010KT 25/19 A299 RMK A01 T02490194  RH  072%=      5-min Rain = 0
KCH1 270333Z 16009KT 25/20 A299 RMK A01 T02490195  RH  072%=      5-min Rain = 0
KCH1 270334Z 15008KT 25/20 A299 RMK A01 T02490195  RH  072%=      5-min Rain = 0
KCH1 270335Z 15007KT 25/20 A299 RMK A01 T02490195  RH  072%=      5-min Rain = 0
KCH1 270336Z 16007KT 25/20 A299 RMK A01 T02480196  RH  073%=      5-min Rain = 0
KCH1 270337Z 15008KT 25/20 A299 RMK A01 T02470195  RH  073%=      5-min Rain = 0
KCH1 270338Z 15009KT 25/20 A299 RMK A01 T02470195  RH  073%=      5-min Rain = 0
KCH1 270339Z 15009KT 25/20 A299 RMK A01 T02470195  RH  073%=      5-min Rain = 0
KCH1 270340Z 15008KT 25/20 A299 RMK A01 T02470195  RH  072%=      5-min Rain = 0
KCH1 270341Z 15009KT 25/20 A299 RMK A01 T02470195  RH  073%=      5-min Rain = 0
KCH1 270342Z 15008KT 25/20 A299 RMK A01 T02470195  RH  073%=      5-min Rain = 0
KCH1 270343Z 15007KT 25/20 A299 RMK A01 T02460195  RH  073%=      5-min Rain = 0
KCH1 270344Z 15009KT 25/20 A2989 RMK A01 T02460195  RH  073%=      5-min Rain = 0
KCH1 270345Z 15008KT 25/19 A2989 RMK A01 T02450194  RH  073%=      5-min Rain = 0
KCH1 270346Z 15008KT 25/20 A2989 RMK A01 T02450195  RH  074%=      5-min Rain = 0
KCH1 270347Z 15009KT 25/20 A2989 RMK A01 T02450195  RH  074%=      5-min Rain = 0
KCH1 270348Z 15008KT 25/20 A2989 RMK A01 T02450195  RH  073%=      5-min Rain = 0
KCH1 270349Z 15008KT 25/20 A2989 RMK A01 T02450195  RH  073%=      5-min Rain = 0
KCH1 270350Z 15008KT 25/20 A2989 RMK A01 T02450195  RH  074%=      5-min Rain = 0
KCH1 270351Z 15008KT 25/19 A2989 RMK A01 T02450194  RH  073%=      5-min Rain = 0
KCH1 270352Z 16010KT 25/19 A299 RMK A01 T02450194  RH  073%=      5-min Rain = 0
KCH1 270353Z 16008KT 25/19 A299 RMK A01 T02450194  RH  073%=      5-min Rain = 0
KCH1 270354Z 16008KT 25/19 A299 RMK A01 T02450194  RH  073%=      5-min Rain = 0
KCH1 270355Z 16008KT 25/20 A299 RMK A01 T02450195  RH  074%=      5-min Rain = 0
KCH1 270356Z 16009KT 25/19 A299 RMK A01 T02450194  RH  073%=      5-min Rain = 0
KCH1 270357Z 16009KT 25/19 A299 RMK A01 T02450194  RH  073%=      5-min Rain = 0
KCH1 270358Z 16009KT 25/19 A299 RMK A01 T02450194  RH  073%=      5-min Rain = 0
KCH1 270359Z 16009KT 25/19 A299 RMK A01 T02450194  RH  073%=      5-min Rain = 0
KCH1 270400Z 16008KT 25/19 A299 RMK A01 T02450194  RH  074%=      5-min Rain = 0
KCH1 270401Z 16007KT 24/19 A299 RMK A01 T02440194  RH  074%=      5-min Rain = 0
KCH1 270402Z 16007KT 24/20 A299 RMK A01 T02430195  RH  074%=      5-min Rain = 0
KCH1 270403Z 15008KT 24/20 A299 RMK A01 T02420195  RH  075%=      5-min Rain = 0
KCH1 270404Z 16007KT 24/20 A299 RMK A01 T02420195  RH  075%=      5-min Rain = 0
KCH1 270405Z 16009KT 24/19 A299 RMK A01 T02410194  RH  075%=      5-min Rain = 0
KCH1 270406Z 16009KT 24/19 A299 RMK A01 T02420194  RH  075%=      5-min Rain = 0
KCH1 270407Z 15010KT 24/19 A299 RMK A01 T02420194  RH  075%=      5-min Rain = 0
KCH1 270408Z 15009KT 24/19 A299 RMK A01 T02420194  RH  074%=      5-min Rain = 0
KCH1 270409Z 16007KT 24/20 A299 RMK A01 T02430195  RH  074%=      5-min Rain = 0
KCH1 270410Z 16008KT 24/20 A299 RMK A01 T02430195  RH  075%=      5-min Rain = 0
KCH1 270411Z 15007KT 24/20 A299 RMK A01 T02420195  RH  075%=      5-min Rain = 0
KCH1 270412Z 15008KT 24/20 A299 RMK A01 T02420195  RH  075%=      5-min Rain = 0
KCH1 270413Z 15008KT 24/20 A299 RMK A01 T02410195  RH  075%=      5-min Rain = 0
KCH1 270414Z 15009KT 24/20 A299 RMK A01 T02400195  RH  076%=      5-min Rain = 0
KCH1 270415Z 15007KT 24/20 A299 RMK A01 T02400195  RH  076%=      5-min Rain = 0
KCH1 270416Z 15008KT 24/20 A299 RMK A01 T02400195  RH  076%=      5-min Rain = 0
KCH1 270417Z 16007KT 24/20 A299 RMK A01 T02400195  RH  076%=      5-min Rain = 0
KCH1 270418Z 15007KT 24/20 A299 RMK A01 T02390195  RH  076%=      5-min Rain = 0
KCH1 270419Z 15007KT 24/20 A299 RMK A01 T02390195  RH  077%=      5-min Rain = 0
KCH1 270420Z 15008KT 24/20 A299 RMK A01 T02380195  RH  077%=      5-min Rain = 0
KCH1 270421Z 15008KT 24/19 A299 RMK A01 T02380194  RH  077%=      5-min Rain = 0
KCH1 270422Z 15007KT 24/20 A299 RMK A01 T02380195  RH  077%=      5-min Rain = 0
KCH1 270423Z 15007KT 24/20 A299 RMK A01 T02380195  RH  077%=      5-min Rain = 0
KCH1 270424Z 16008KT 24/20 A299 RMK A01 T02380195  RH  077%=      5-min Rain = 0
KCH1 270425Z 16008KT 24/19 A299 RMK A01 T02380194  RH  077%=      5-min Rain = 0
KCH1 270426Z 15007KT 24/19 A299 RMK A01 T02380194  RH  077%=      5-min Rain = 0
KCH1 270427Z 16006KT 24/19 A299 RMK A01 T02380194  RH  077%=      5-min Rain = 0
KCH1 270428Z 16007KT 24/20 A299 RMK A01 T02380195  RH  077%=      5-min Rain = 0
KCH1 270429Z 16007KT 24/20 A299 RMK A01 T02370195  RH  077%=      5-min Rain = 0
KCH1 270430Z 15007KT 24/20 A299 RMK A01 T02370195  RH  077%=      5-min Rain = 0
KCH1 270431Z 16007KT 24/20 A299 RMK A01 T02370195  RH  077%=      5-min Rain = 0
KCH1 270432Z 17007KT 24/20 A299 RMK A01 T02370195  RH  077%=      5-min Rain = 0
KCH1 270433Z 16007KT 24/20 A299 RMK A01 T02360195  RH  078%=      5-min Rain = 0
KCH1 270434Z 17006KT 24/20 A2991 RMK A01 T02350195  RH  078%=      5-min Rain = 0
KCH1 270435Z 17006KT 24/20 A2991 RMK A01 T02350195  RH  078%=      5-min Rain = 0
KCH1 270436Z 17006KT 23/20 A2991 RMK A01 T02340195  RH  079%=      5-min Rain = 0
KCH1 270437Z 16006KT 23/20 A2991 RMK A01 T02330195  RH  079%=      5-min Rain = 0
KCH1 270438Z 17006KT 23/20 A2991 RMK A01 T02330195  RH  079%=      5-min Rain = 0
KCH1 270439Z 17007KT 23/20 A2991 RMK A01 T02330195  RH  079%=      5-min Rain = 0
KCH1 270440Z 16006KT 23/20 A2991 RMK A01 T02320195  RH  080%=      5-min Rain = 0
KCH1 270441Z 16007KT 23/20 A2991 RMK A01 T02320195  RH  080%=      5-min Rain = 0
KCH1 270442Z 16007KT 23/20 A2991 RMK A01 T02320195  RH  080%=      5-min Rain = 0
KCH1 270443Z 16007KT 23/20 A2991 RMK A01 T02320195  RH  080%=      5-min Rain = 0
KCH1 270444Z 16007KT 23/20 A2991 RMK A01 T02320196  RH  080%=      5-min Rain = 0
KCH1 270445Z 15007KT 23/20 A299 RMK A01 T02310195  RH  080%=      5-min Rain = 0
KCH1 270446Z 15008KT 23/20 A299 RMK A01 T02300195  RH  081%=      5-min Rain = 0
KCH1 270447Z 15007KT 23/20 A299 RMK A01 T02300195  RH  081%=      5-min Rain = 0
KCH1 270448Z 15009KT 23/20 A299 RMK A01 T02300195  RH  081%=      5-min Rain = 0
KCH1 270449Z 15007KT 23/20 A299 RMK A01 T02300195  RH  081%=      5-min Rain = 0
KCH1 270450Z 15008KT 23/20 A299 RMK A01 T02300195  RH  081%=      5-min Rain = 0
KCH1 270451Z 14007KT 23/20 A299 RMK A01 T02300195  RH  081%=      5-min Rain = 0
KCH1 270452Z 15006KT 23/20 A299 RMK A01 T02300195  RH  081%=      5-min Rain = 0
KCH1 270453Z 15008KT 23/20 A299 RMK A01 T02300195  RH  081%=      5-min Rain = 0
KCH1 270454Z 15007KT 23/20 A299 RMK A01 T02300195  RH  081%=      5-min Rain = 0
KCH1 270455Z 15007KT 23/20 A299 RMK A01 T02300195  RH  081%=      5-min Rain = 0
KCH1 270456Z 15005KT 23/20 A2991 RMK A01 T02300195  RH  081%=      5-min Rain = 0
KCH1 270457Z 14005KT 23/20 A2991 RMK A01 T02290195  RH  081%=      5-min Rain = 0
KCH1 270458Z 15006KT 23/20 A2991 RMK A01 T02290195  RH  081%=      5-min Rain = 0
KCH1 270459Z 15007KT 23/20 A2991 RMK A01 T02280196  RH  082%=      5-min Rain = 0

Page generated in 0.1219 seconds.